<?xml version="1.0" encoding="UTF-8" standalone="no" ?>
<gpx xmlns="http://www.topografix.com/GPX/1/1" xmlns:xsi="http://www.w3.org/2001/XMLSchema-instance" xsi:schemaLocation="http://www.topografix.com/GPX/1/1 http://www.topografix.com/GPX/1/1/gpx.xsd" version="1.1" creator="VisuGPX - https://www.visugpx.com">
  <metadata>
    <name>2023-09-28-46-Montpezat du Quercy</name>
    <desc><![CDATA[Randonnée de 10 km pour 250 m de dénivelé positif. Après avoir rejoint la route de Molières, nous avons emprunté un sentier boisé et traversé un petit pont enjambant un ruisseau asséché, nous avons cheminé à découvert jusqu'à un plateau et alterné: chemins boisés, ensoleillés, hameaux, petites routes et finir par le tour du lac vert]]></desc>
  </metadata>
  <trk>
    <name><![CDATA[MONTPEZÀT]]></name>
    <trkseg>
      <trkpt lat="44.26169" lon="1.45536">
        <ele>188.56</ele>
        <time>2023-09-12T12:43:42Z</time>
      </trkpt>
      <trkpt lat="44.26169" lon="1.45536">
        <ele>188.56</ele>
        <time>2023-09-12T12:43:43Z</time>
      </trkpt>
      <trkpt lat="44.26176" lon="1.45525">
        <ele>188.08</ele>
        <time>2023-09-12T12:44:09Z</time>
      </trkpt>
      <trkpt lat="44.26174" lon="1.45517">
        <ele>189.04</ele>
        <time>2023-09-12T12:44:19Z</time>
      </trkpt>
      <trkpt lat="44.26175" lon="1.45514">
        <ele>189.52</ele>
        <time>2023-09-12T12:44:42Z</time>
      </trkpt>
      <trkpt lat="44.26174" lon="1.45516">
        <ele>188.08</ele>
        <time>2023-09-12T12:45:11Z</time>
      </trkpt>
      <trkpt lat="44.26174" lon="1.45515">
        <ele>188.08</ele>
        <time>2023-09-12T12:45:34Z</time>
      </trkpt>
      <trkpt lat="44.26171" lon="1.45515">
        <ele>189.52</ele>
        <time>2023-09-12T12:45:39Z</time>
      </trkpt>
      <trkpt lat="44.26169" lon="1.45513">
        <ele>189.04</ele>
        <time>2023-09-12T12:45:42Z</time>
      </trkpt>
      <trkpt lat="44.26152" lon="1.45504">
        <ele>189.04</ele>
        <time>2023-09-12T12:46:02Z</time>
      </trkpt>
      <trkpt lat="44.2614" lon="1.4551">
        <ele>189.04</ele>
        <time>2023-09-12T12:46:16Z</time>
      </trkpt>
      <trkpt lat="44.26135" lon="1.45515">
        <ele>189.04</ele>
        <time>2023-09-12T12:46:22Z</time>
      </trkpt>
      <trkpt lat="44.26127" lon="1.45528">
        <ele>190.48</ele>
        <time>2023-09-12T12:46:34Z</time>
      </trkpt>
      <trkpt lat="44.2612" lon="1.4556">
        <ele>190.96</ele>
        <time>2023-09-12T12:46:54Z</time>
      </trkpt>
      <trkpt lat="44.26119" lon="1.45587">
        <ele>191.92</ele>
        <time>2023-09-12T12:47:12Z</time>
      </trkpt>
      <trkpt lat="44.26119" lon="1.45607">
        <ele>192.88</ele>
        <time>2023-09-12T12:47:25Z</time>
      </trkpt>
      <trkpt lat="44.26123" lon="1.45623">
        <ele>193.36</ele>
        <time>2023-09-12T12:47:34Z</time>
      </trkpt>
      <trkpt lat="44.26135" lon="1.45634">
        <ele>193.36</ele>
        <time>2023-09-12T12:47:45Z</time>
      </trkpt>
      <trkpt lat="44.26159" lon="1.45645">
        <ele>193.36</ele>
        <time>2023-09-12T12:48:02Z</time>
      </trkpt>
      <trkpt lat="44.26175" lon="1.45654">
        <ele>193.36</ele>
        <time>2023-09-12T12:48:15Z</time>
      </trkpt>
      <trkpt lat="44.26188" lon="1.45661">
        <ele>192.88</ele>
        <time>2023-09-12T12:48:24Z</time>
      </trkpt>
      <trkpt lat="44.26209" lon="1.4567">
        <ele>192.88</ele>
        <time>2023-09-12T12:48:41Z</time>
      </trkpt>
      <trkpt lat="44.26231" lon="1.45668">
        <ele>192.88</ele>
        <time>2023-09-12T12:48:58Z</time>
      </trkpt>
      <trkpt lat="44.26251" lon="1.45661">
        <ele>191.44</ele>
        <time>2023-09-12T12:49:14Z</time>
      </trkpt>
      <trkpt lat="44.26273" lon="1.45652">
        <ele>190.96</ele>
        <time>2023-09-12T12:49:29Z</time>
      </trkpt>
      <trkpt lat="44.26288" lon="1.45646">
        <ele>190.48</ele>
        <time>2023-09-12T12:49:43Z</time>
      </trkpt>
      <trkpt lat="44.26309" lon="1.45639">
        <ele>190.48</ele>
        <time>2023-09-12T12:50:00Z</time>
      </trkpt>
      <trkpt lat="44.26334" lon="1.45638">
        <ele>190</ele>
        <time>2023-09-12T12:50:17Z</time>
      </trkpt>
      <trkpt lat="44.26356" lon="1.4563">
        <ele>189.04</ele>
        <time>2023-09-12T12:50:34Z</time>
      </trkpt>
      <trkpt lat="44.26381" lon="1.45626">
        <ele>188.08</ele>
        <time>2023-09-12T12:50:53Z</time>
      </trkpt>
      <trkpt lat="44.26407" lon="1.45622">
        <ele>186.63</ele>
        <time>2023-09-12T12:51:13Z</time>
      </trkpt>
      <trkpt lat="44.26428" lon="1.45617">
        <ele>186.15</ele>
        <time>2023-09-12T12:51:31Z</time>
      </trkpt>
      <trkpt lat="44.26449" lon="1.45612">
        <ele>185.67</ele>
        <time>2023-09-12T12:51:50Z</time>
      </trkpt>
      <trkpt lat="44.2645" lon="1.45612">
        <ele>185.67</ele>
        <time>2023-09-12T12:51:51Z</time>
      </trkpt>
      <trkpt lat="44.26461" lon="1.45604">
        <ele>184.23</ele>
        <time>2023-09-12T12:52:01Z</time>
      </trkpt>
      <trkpt lat="44.26475" lon="1.45584">
        <ele>185.19</ele>
        <time>2023-09-12T12:52:17Z</time>
      </trkpt>
      <trkpt lat="44.26477" lon="1.45577">
        <ele>183.75</ele>
        <time>2023-09-12T12:52:21Z</time>
      </trkpt>
      <trkpt lat="44.26482" lon="1.45546">
        <ele>183.27</ele>
        <time>2023-09-12T12:52:37Z</time>
      </trkpt>
      <trkpt lat="44.2648" lon="1.45522">
        <ele>182.31</ele>
        <time>2023-09-12T12:52:53Z</time>
      </trkpt>
      <trkpt lat="44.26479" lon="1.45496">
        <ele>181.83</ele>
        <time>2023-09-12T12:53:07Z</time>
      </trkpt>
      <trkpt lat="44.26483" lon="1.45482">
        <ele>180.87</ele>
        <time>2023-09-12T12:53:16Z</time>
      </trkpt>
      <trkpt lat="44.2649" lon="1.45478">
        <ele>180.38</ele>
        <time>2023-09-12T12:53:22Z</time>
      </trkpt>
      <trkpt lat="44.26511" lon="1.4547">
        <ele>179.42</ele>
        <time>2023-09-12T12:53:39Z</time>
      </trkpt>
      <trkpt lat="44.26526" lon="1.4546">
        <ele>178.46</ele>
        <time>2023-09-12T12:53:53Z</time>
      </trkpt>
      <trkpt lat="44.26547" lon="1.45449">
        <ele>177.5</ele>
        <time>2023-09-12T12:54:09Z</time>
      </trkpt>
      <trkpt lat="44.26568" lon="1.4544">
        <ele>176.54</ele>
        <time>2023-09-12T12:54:27Z</time>
      </trkpt>
      <trkpt lat="44.26587" lon="1.45429">
        <ele>174.62</ele>
        <time>2023-09-12T12:54:43Z</time>
      </trkpt>
      <trkpt lat="44.26602" lon="1.45426">
        <ele>173.17</ele>
        <time>2023-09-12T12:54:57Z</time>
      </trkpt>
      <trkpt lat="44.26621" lon="1.45423">
        <ele>172.21</ele>
        <time>2023-09-12T12:55:12Z</time>
      </trkpt>
      <trkpt lat="44.26624" lon="1.4542">
        <ele>172.21</ele>
        <time>2023-09-12T12:55:15Z</time>
      </trkpt>
      <trkpt lat="44.26636" lon="1.45406">
        <ele>170.77</ele>
        <time>2023-09-12T12:55:33Z</time>
      </trkpt>
      <trkpt lat="44.26651" lon="1.45399">
        <ele>169.33</ele>
        <time>2023-09-12T12:55:49Z</time>
      </trkpt>
      <trkpt lat="44.26667" lon="1.45387">
        <ele>167.89</ele>
        <time>2023-09-12T12:56:05Z</time>
      </trkpt>
      <trkpt lat="44.26666" lon="1.45371">
        <ele>167.41</ele>
        <time>2023-09-12T12:56:19Z</time>
      </trkpt>
      <trkpt lat="44.26662" lon="1.45345">
        <ele>167.41</ele>
        <time>2023-09-12T12:56:35Z</time>
      </trkpt>
      <trkpt lat="44.26654" lon="1.45317">
        <ele>167.41</ele>
        <time>2023-09-12T12:56:52Z</time>
      </trkpt>
      <trkpt lat="44.26649" lon="1.45301">
        <ele>167.41</ele>
        <time>2023-09-12T12:57:07Z</time>
      </trkpt>
      <trkpt lat="44.26643" lon="1.45294">
        <ele>169.33</ele>
        <time>2023-09-12T12:57:22Z</time>
      </trkpt>
      <trkpt lat="44.26651" lon="1.45277">
        <ele>169.81</ele>
        <time>2023-09-12T12:57:37Z</time>
      </trkpt>
      <trkpt lat="44.26651" lon="1.45276">
        <ele>169.81</ele>
        <time>2023-09-12T12:57:38Z</time>
      </trkpt>
      <trkpt lat="44.26653" lon="1.45267">
        <ele>170.29</ele>
        <time>2023-09-12T12:57:43Z</time>
      </trkpt>
      <trkpt lat="44.26655" lon="1.45261">
        <ele>170.29</ele>
        <time>2023-09-12T12:57:47Z</time>
      </trkpt>
      <trkpt lat="44.26659" lon="1.45243">
        <ele>170.77</ele>
        <time>2023-09-12T12:58:00Z</time>
      </trkpt>
      <trkpt lat="44.26662" lon="1.45235">
        <ele>170.77</ele>
        <time>2023-09-12T12:58:05Z</time>
      </trkpt>
      <trkpt lat="44.26669" lon="1.45206">
        <ele>172.21</ele>
        <time>2023-09-12T12:58:23Z</time>
      </trkpt>
      <trkpt lat="44.26677" lon="1.45177">
        <ele>173.66</ele>
        <time>2023-09-12T12:58:41Z</time>
      </trkpt>
      <trkpt lat="44.26683" lon="1.4515">
        <ele>175.1</ele>
        <time>2023-09-12T12:59:01Z</time>
      </trkpt>
      <trkpt lat="44.26692" lon="1.45125">
        <ele>176.54</ele>
        <time>2023-09-12T12:59:20Z</time>
      </trkpt>
      <trkpt lat="44.26704" lon="1.45102">
        <ele>177.98</ele>
        <time>2023-09-12T12:59:39Z</time>
      </trkpt>
      <trkpt lat="44.26715" lon="1.4508">
        <ele>178.94</ele>
        <time>2023-09-12T12:59:58Z</time>
      </trkpt>
      <trkpt lat="44.26723" lon="1.45065">
        <ele>180.38</ele>
        <time>2023-09-12T13:00:13Z</time>
      </trkpt>
      <trkpt lat="44.26733" lon="1.45046">
        <ele>182.31</ele>
        <time>2023-09-12T13:00:30Z</time>
      </trkpt>
      <trkpt lat="44.26742" lon="1.45025">
        <ele>183.27</ele>
        <time>2023-09-12T13:00:46Z</time>
      </trkpt>
      <trkpt lat="44.26753" lon="1.45005">
        <ele>184.23</ele>
        <time>2023-09-12T13:01:04Z</time>
      </trkpt>
      <trkpt lat="44.26761" lon="1.44987">
        <ele>184.71</ele>
        <time>2023-09-12T13:01:21Z</time>
      </trkpt>
      <trkpt lat="44.26763" lon="1.44982">
        <ele>184.71</ele>
        <time>2023-09-12T13:01:26Z</time>
      </trkpt>
      <trkpt lat="44.26763" lon="1.44979">
        <ele>184.71</ele>
        <time>2023-09-12T13:01:28Z</time>
      </trkpt>
      <trkpt lat="44.26766" lon="1.44974">
        <ele>184.71</ele>
        <time>2023-09-12T13:01:32Z</time>
      </trkpt>
      <trkpt lat="44.26768" lon="1.4497">
        <ele>183.27</ele>
        <time>2023-09-12T13:01:34Z</time>
      </trkpt>
      <trkpt lat="44.26775" lon="1.44967">
        <ele>183.27</ele>
        <time>2023-09-12T13:01:42Z</time>
      </trkpt>
      <trkpt lat="44.26792" lon="1.44978">
        <ele>183.27</ele>
        <time>2023-09-12T13:01:58Z</time>
      </trkpt>
      <trkpt lat="44.26813" lon="1.44992">
        <ele>186.63</ele>
        <time>2023-09-12T13:02:16Z</time>
      </trkpt>
      <trkpt lat="44.26831" lon="1.45003">
        <ele>187.59</ele>
        <time>2023-09-12T13:02:34Z</time>
      </trkpt>
      <trkpt lat="44.26849" lon="1.45013">
        <ele>188.56</ele>
        <time>2023-09-12T13:02:52Z</time>
      </trkpt>
      <trkpt lat="44.26867" lon="1.45021">
        <ele>189.52</ele>
        <time>2023-09-12T13:03:09Z</time>
      </trkpt>
      <trkpt lat="44.26885" lon="1.45032">
        <ele>190.48</ele>
        <time>2023-09-12T13:03:26Z</time>
      </trkpt>
      <trkpt lat="44.26903" lon="1.45042">
        <ele>191.44</ele>
        <time>2023-09-12T13:03:44Z</time>
      </trkpt>
      <trkpt lat="44.26924" lon="1.45049">
        <ele>192.4</ele>
        <time>2023-09-12T13:04:02Z</time>
      </trkpt>
      <trkpt lat="44.2694" lon="1.45053">
        <ele>192.88</ele>
        <time>2023-09-12T13:04:16Z</time>
      </trkpt>
      <trkpt lat="44.2696" lon="1.4505">
        <ele>193.36</ele>
        <time>2023-09-12T13:04:34Z</time>
      </trkpt>
      <trkpt lat="44.26972" lon="1.45045">
        <ele>193.84</ele>
        <time>2023-09-12T13:04:47Z</time>
      </trkpt>
      <trkpt lat="44.26989" lon="1.45037">
        <ele>193.84</ele>
        <time>2023-09-12T13:05:04Z</time>
      </trkpt>
      <trkpt lat="44.27007" lon="1.45036">
        <ele>194.32</ele>
        <time>2023-09-12T13:05:20Z</time>
      </trkpt>
      <trkpt lat="44.27027" lon="1.45045">
        <ele>195.77</ele>
        <time>2023-09-12T13:05:39Z</time>
      </trkpt>
      <trkpt lat="44.27045" lon="1.45054">
        <ele>197.69</ele>
        <time>2023-09-12T13:05:57Z</time>
      </trkpt>
      <trkpt lat="44.27047" lon="1.45055">
        <ele>198.17</ele>
        <time>2023-09-12T13:06:03Z</time>
      </trkpt>
      <trkpt lat="44.27059" lon="1.45062">
        <ele>198.17</ele>
        <time>2023-09-12T13:06:17Z</time>
      </trkpt>
      <trkpt lat="44.27079" lon="1.45065">
        <ele>199.61</ele>
        <time>2023-09-12T13:06:34Z</time>
      </trkpt>
      <trkpt lat="44.27081" lon="1.45064">
        <ele>200.09</ele>
        <time>2023-09-12T13:06:36Z</time>
      </trkpt>
      <trkpt lat="44.27096" lon="1.45062">
        <ele>201.53</ele>
        <time>2023-09-12T13:06:52Z</time>
      </trkpt>
      <trkpt lat="44.27097" lon="1.45062">
        <ele>202.01</ele>
        <time>2023-09-12T13:07:11Z</time>
      </trkpt>
      <trkpt lat="44.271" lon="1.45058">
        <ele>202.01</ele>
        <time>2023-09-12T13:07:35Z</time>
      </trkpt>
      <trkpt lat="44.27098" lon="1.4506">
        <ele>202.01</ele>
        <time>2023-09-12T13:07:57Z</time>
      </trkpt>
      <trkpt lat="44.27111" lon="1.45055">
        <ele>202.98</ele>
        <time>2023-09-12T13:08:12Z</time>
      </trkpt>
      <trkpt lat="44.27131" lon="1.4505">
        <ele>205.38</ele>
        <time>2023-09-12T13:08:30Z</time>
      </trkpt>
      <trkpt lat="44.27151" lon="1.45044">
        <ele>207.3</ele>
        <time>2023-09-12T13:08:49Z</time>
      </trkpt>
      <trkpt lat="44.2717" lon="1.45044">
        <ele>209.22</ele>
        <time>2023-09-12T13:09:06Z</time>
      </trkpt>
      <trkpt lat="44.27187" lon="1.45043">
        <ele>210.67</ele>
        <time>2023-09-12T13:09:22Z</time>
      </trkpt>
      <trkpt lat="44.27205" lon="1.45037">
        <ele>212.59</ele>
        <time>2023-09-12T13:09:39Z</time>
      </trkpt>
      <trkpt lat="44.27222" lon="1.45023">
        <ele>214.03</ele>
        <time>2023-09-12T13:09:57Z</time>
      </trkpt>
      <trkpt lat="44.27222" lon="1.45022">
        <ele>214.03</ele>
        <time>2023-09-12T13:09:58Z</time>
      </trkpt>
      <trkpt lat="44.27237" lon="1.45012">
        <ele>215.47</ele>
        <time>2023-09-12T13:10:14Z</time>
      </trkpt>
      <trkpt lat="44.27251" lon="1.45003">
        <ele>216.43</ele>
        <time>2023-09-12T13:10:33Z</time>
      </trkpt>
      <trkpt lat="44.2727" lon="1.44985">
        <ele>218.84</ele>
        <time>2023-09-12T13:10:53Z</time>
      </trkpt>
      <trkpt lat="44.27285" lon="1.44964">
        <ele>221.72</ele>
        <time>2023-09-12T13:11:12Z</time>
      </trkpt>
      <trkpt lat="44.27291" lon="1.44959">
        <ele>222.2</ele>
        <time>2023-09-12T13:11:19Z</time>
      </trkpt>
      <trkpt lat="44.27301" lon="1.44946">
        <ele>223.64</ele>
        <time>2023-09-12T13:11:36Z</time>
      </trkpt>
      <trkpt lat="44.27302" lon="1.44943">
        <ele>224.12</ele>
        <time>2023-09-12T13:11:52Z</time>
      </trkpt>
      <trkpt lat="44.27303" lon="1.44944">
        <ele>224.12</ele>
        <time>2023-09-12T13:12:06Z</time>
      </trkpt>
      <trkpt lat="44.27321" lon="1.44928">
        <ele>226.53</ele>
        <time>2023-09-12T13:12:25Z</time>
      </trkpt>
      <trkpt lat="44.27339" lon="1.44912">
        <ele>228.93</ele>
        <time>2023-09-12T13:12:44Z</time>
      </trkpt>
      <trkpt lat="44.27357" lon="1.449">
        <ele>231.33</ele>
        <time>2023-09-12T13:13:03Z</time>
      </trkpt>
      <trkpt lat="44.27374" lon="1.44886">
        <ele>232.3</ele>
        <time>2023-09-12T13:13:20Z</time>
      </trkpt>
      <trkpt lat="44.2739" lon="1.44869">
        <ele>233.74</ele>
        <time>2023-09-12T13:13:37Z</time>
      </trkpt>
      <trkpt lat="44.27396" lon="1.4486">
        <ele>234.22</ele>
        <time>2023-09-12T13:13:50Z</time>
      </trkpt>
      <trkpt lat="44.27404" lon="1.44837">
        <ele>235.66</ele>
        <time>2023-09-12T13:14:08Z</time>
      </trkpt>
      <trkpt lat="44.27414" lon="1.44814">
        <ele>237.58</ele>
        <time>2023-09-12T13:14:24Z</time>
      </trkpt>
      <trkpt lat="44.27422" lon="1.4479">
        <ele>239.02</ele>
        <time>2023-09-12T13:14:40Z</time>
      </trkpt>
      <trkpt lat="44.27428" lon="1.44763">
        <ele>241.43</ele>
        <time>2023-09-12T13:14:59Z</time>
      </trkpt>
      <trkpt lat="44.27433" lon="1.44745">
        <ele>242.87</ele>
        <time>2023-09-12T13:15:14Z</time>
      </trkpt>
      <trkpt lat="44.27444" lon="1.4473">
        <ele>244.79</ele>
        <time>2023-09-12T13:15:32Z</time>
      </trkpt>
      <trkpt lat="44.27453" lon="1.44716">
        <ele>246.72</ele>
        <time>2023-09-12T13:15:46Z</time>
      </trkpt>
      <trkpt lat="44.27467" lon="1.44698">
        <ele>248.64</ele>
        <time>2023-09-12T13:16:05Z</time>
      </trkpt>
      <trkpt lat="44.27482" lon="1.44687">
        <ele>250.08</ele>
        <time>2023-09-12T13:16:22Z</time>
      </trkpt>
      <trkpt lat="44.27496" lon="1.44683">
        <ele>252.48</ele>
        <time>2023-09-12T13:16:41Z</time>
      </trkpt>
      <trkpt lat="44.27511" lon="1.44677">
        <ele>252.96</ele>
        <time>2023-09-12T13:16:57Z</time>
      </trkpt>
      <trkpt lat="44.27529" lon="1.44669">
        <ele>255.85</ele>
        <time>2023-09-12T13:17:16Z</time>
      </trkpt>
      <trkpt lat="44.27536" lon="1.44665">
        <ele>257.29</ele>
        <time>2023-09-12T13:17:23Z</time>
      </trkpt>
      <trkpt lat="44.27548" lon="1.44648">
        <ele>259.21</ele>
        <time>2023-09-12T13:17:39Z</time>
      </trkpt>
      <trkpt lat="44.27553" lon="1.44635">
        <ele>259.69</ele>
        <time>2023-09-12T13:17:49Z</time>
      </trkpt>
      <trkpt lat="44.27559" lon="1.44614">
        <ele>261.14</ele>
        <time>2023-09-12T13:18:03Z</time>
      </trkpt>
      <trkpt lat="44.27563" lon="1.446">
        <ele>262.58</ele>
        <time>2023-09-12T13:18:13Z</time>
      </trkpt>
      <trkpt lat="44.2757" lon="1.44584">
        <ele>263.54</ele>
        <time>2023-09-12T13:18:26Z</time>
      </trkpt>
      <trkpt lat="44.27581" lon="1.44565">
        <ele>265.46</ele>
        <time>2023-09-12T13:18:42Z</time>
      </trkpt>
      <trkpt lat="44.27591" lon="1.44552">
        <ele>265.94</ele>
        <time>2023-09-12T13:19:01Z</time>
      </trkpt>
      <trkpt lat="44.27599" lon="1.44528">
        <ele>267.38</ele>
        <time>2023-09-12T13:19:19Z</time>
      </trkpt>
      <trkpt lat="44.27609" lon="1.44501">
        <ele>268.83</ele>
        <time>2023-09-12T13:19:39Z</time>
      </trkpt>
      <trkpt lat="44.27619" lon="1.44471">
        <ele>270.27</ele>
        <time>2023-09-12T13:19:59Z</time>
      </trkpt>
      <trkpt lat="44.27626" lon="1.44447">
        <ele>270.27</ele>
        <time>2023-09-12T13:20:16Z</time>
      </trkpt>
      <trkpt lat="44.27628" lon="1.44442">
        <ele>270.75</ele>
        <time>2023-09-12T13:20:27Z</time>
      </trkpt>
      <trkpt lat="44.2763" lon="1.44437">
        <ele>270.75</ele>
        <time>2023-09-12T13:20:41Z</time>
      </trkpt>
      <trkpt lat="44.27632" lon="1.44434">
        <ele>270.75</ele>
        <time>2023-09-12T13:20:55Z</time>
      </trkpt>
      <trkpt lat="44.27633" lon="1.44428">
        <ele>270.75</ele>
        <time>2023-09-12T13:21:03Z</time>
      </trkpt>
      <trkpt lat="44.27637" lon="1.44421">
        <ele>270.75</ele>
        <time>2023-09-12T13:21:18Z</time>
      </trkpt>
      <trkpt lat="44.27644" lon="1.44409">
        <ele>270.75</ele>
        <time>2023-09-12T13:21:34Z</time>
      </trkpt>
      <trkpt lat="44.27656" lon="1.44391">
        <ele>270.75</ele>
        <time>2023-09-12T13:21:51Z</time>
      </trkpt>
      <trkpt lat="44.27672" lon="1.44371">
        <ele>270.75</ele>
        <time>2023-09-12T13:22:07Z</time>
      </trkpt>
      <trkpt lat="44.27694" lon="1.44355">
        <ele>269.31</ele>
        <time>2023-09-12T13:22:27Z</time>
      </trkpt>
      <trkpt lat="44.27716" lon="1.44338">
        <ele>268.35</ele>
        <time>2023-09-12T13:22:49Z</time>
      </trkpt>
      <trkpt lat="44.27736" lon="1.44321">
        <ele>267.86</ele>
        <time>2023-09-12T13:23:08Z</time>
      </trkpt>
      <trkpt lat="44.27755" lon="1.44303">
        <ele>269.31</ele>
        <time>2023-09-12T13:23:29Z</time>
      </trkpt>
      <trkpt lat="44.27761" lon="1.44299">
        <ele>269.31</ele>
        <time>2023-09-12T13:23:34Z</time>
      </trkpt>
      <trkpt lat="44.27784" lon="1.44284">
        <ele>269.31</ele>
        <time>2023-09-12T13:23:55Z</time>
      </trkpt>
      <trkpt lat="44.27801" lon="1.4426">
        <ele>269.31</ele>
        <time>2023-09-12T13:24:14Z</time>
      </trkpt>
      <trkpt lat="44.27802" lon="1.44247">
        <ele>269.79</ele>
        <time>2023-09-12T13:24:27Z</time>
      </trkpt>
      <trkpt lat="44.27804" lon="1.4423">
        <ele>270.75</ele>
        <time>2023-09-12T13:24:38Z</time>
      </trkpt>
      <trkpt lat="44.27803" lon="1.44219">
        <ele>271.71</ele>
        <time>2023-09-12T13:24:46Z</time>
      </trkpt>
      <trkpt lat="44.278" lon="1.44209">
        <ele>271.71</ele>
        <time>2023-09-12T13:24:52Z</time>
      </trkpt>
      <trkpt lat="44.27797" lon="1.44177">
        <ele>271.71</ele>
        <time>2023-09-12T13:25:10Z</time>
      </trkpt>
      <trkpt lat="44.27798" lon="1.44142">
        <ele>271.71</ele>
        <time>2023-09-12T13:25:32Z</time>
      </trkpt>
      <trkpt lat="44.278" lon="1.44116">
        <ele>271.71</ele>
        <time>2023-09-12T13:25:48Z</time>
      </trkpt>
      <trkpt lat="44.27801" lon="1.44093">
        <ele>272.19</ele>
        <time>2023-09-12T13:26:03Z</time>
      </trkpt>
      <trkpt lat="44.27803" lon="1.44088">
        <ele>272.19</ele>
        <time>2023-09-12T13:26:07Z</time>
      </trkpt>
      <trkpt lat="44.27816" lon="1.44084">
        <ele>273.63</ele>
        <time>2023-09-12T13:26:21Z</time>
      </trkpt>
      <trkpt lat="44.27839" lon="1.44097">
        <ele>273.63</ele>
        <time>2023-09-12T13:26:40Z</time>
      </trkpt>
      <trkpt lat="44.27859" lon="1.44113">
        <ele>274.11</ele>
        <time>2023-09-12T13:26:59Z</time>
      </trkpt>
      <trkpt lat="44.27877" lon="1.44122">
        <ele>275.07</ele>
        <time>2023-09-12T13:27:15Z</time>
      </trkpt>
      <trkpt lat="44.279" lon="1.44134">
        <ele>275.56</ele>
        <time>2023-09-12T13:27:35Z</time>
      </trkpt>
      <trkpt lat="44.27916" lon="1.44147">
        <ele>275.56</ele>
        <time>2023-09-12T13:27:53Z</time>
      </trkpt>
      <trkpt lat="44.27919" lon="1.4415">
        <ele>275.56</ele>
        <time>2023-09-12T13:27:57Z</time>
      </trkpt>
      <trkpt lat="44.27934" lon="1.44152">
        <ele>276.04</ele>
        <time>2023-09-12T13:28:12Z</time>
      </trkpt>
      <trkpt lat="44.27951" lon="1.44155">
        <ele>276.04</ele>
        <time>2023-09-12T13:28:27Z</time>
      </trkpt>
      <trkpt lat="44.27964" lon="1.44172">
        <ele>276.04</ele>
        <time>2023-09-12T13:28:44Z</time>
      </trkpt>
      <trkpt lat="44.27965" lon="1.44195">
        <ele>274.59</ele>
        <time>2023-09-12T13:28:59Z</time>
      </trkpt>
      <trkpt lat="44.27964" lon="1.44198">
        <ele>274.11</ele>
        <time>2023-09-12T13:29:02Z</time>
      </trkpt>
      <trkpt lat="44.27962" lon="1.44204">
        <ele>274.59</ele>
        <time>2023-09-12T13:29:06Z</time>
      </trkpt>
      <trkpt lat="44.27964" lon="1.44217">
        <ele>274.59</ele>
        <time>2023-09-12T13:29:18Z</time>
      </trkpt>
      <trkpt lat="44.27973" lon="1.44225">
        <ele>274.11</ele>
        <time>2023-09-12T13:29:34Z</time>
      </trkpt>
      <trkpt lat="44.27978" lon="1.44243">
        <ele>273.15</ele>
        <time>2023-09-12T13:29:53Z</time>
      </trkpt>
      <trkpt lat="44.27978" lon="1.44244">
        <ele>273.15</ele>
        <time>2023-09-12T13:29:54Z</time>
      </trkpt>
      <trkpt lat="44.27979" lon="1.44252">
        <ele>273.15</ele>
        <time>2023-09-12T13:29:58Z</time>
      </trkpt>
      <trkpt lat="44.27987" lon="1.44276">
        <ele>272.19</ele>
        <time>2023-09-12T13:30:15Z</time>
      </trkpt>
      <trkpt lat="44.27991" lon="1.44286">
        <ele>272.19</ele>
        <time>2023-09-12T13:30:22Z</time>
      </trkpt>
      <trkpt lat="44.27997" lon="1.44318">
        <ele>271.71</ele>
        <time>2023-09-12T13:30:42Z</time>
      </trkpt>
      <trkpt lat="44.27999" lon="1.44333">
        <ele>271.23</ele>
        <time>2023-09-12T13:30:52Z</time>
      </trkpt>
      <trkpt lat="44.27997" lon="1.44348">
        <ele>270.75</ele>
        <time>2023-09-12T13:31:09Z</time>
      </trkpt>
      <trkpt lat="44.27998" lon="1.4435">
        <ele>270.75</ele>
        <time>2023-09-12T13:31:14Z</time>
      </trkpt>
      <trkpt lat="44.28003" lon="1.44348">
        <ele>270.27</ele>
        <time>2023-09-12T13:31:22Z</time>
      </trkpt>
      <trkpt lat="44.28014" lon="1.44335">
        <ele>269.79</ele>
        <time>2023-09-12T13:31:35Z</time>
      </trkpt>
      <trkpt lat="44.28035" lon="1.44319">
        <ele>269.79</ele>
        <time>2023-09-12T13:31:55Z</time>
      </trkpt>
      <trkpt lat="44.28054" lon="1.44307">
        <ele>268.83</ele>
        <time>2023-09-12T13:32:12Z</time>
      </trkpt>
      <trkpt lat="44.28077" lon="1.44297">
        <ele>268.83</ele>
        <time>2023-09-12T13:32:31Z</time>
      </trkpt>
      <trkpt lat="44.28094" lon="1.4429">
        <ele>268.83</ele>
        <time>2023-09-12T13:32:48Z</time>
      </trkpt>
      <trkpt lat="44.28103" lon="1.44289">
        <ele>268.83</ele>
        <time>2023-09-12T13:32:59Z</time>
      </trkpt>
      <trkpt lat="44.28129" lon="1.44286">
        <ele>269.79</ele>
        <time>2023-09-12T13:33:19Z</time>
      </trkpt>
      <trkpt lat="44.28144" lon="1.44285">
        <ele>269.79</ele>
        <time>2023-09-12T13:33:34Z</time>
      </trkpt>
      <trkpt lat="44.2816" lon="1.443">
        <ele>269.79</ele>
        <time>2023-09-12T13:33:50Z</time>
      </trkpt>
      <trkpt lat="44.28163" lon="1.44303">
        <ele>269.79</ele>
        <time>2023-09-12T13:33:54Z</time>
      </trkpt>
      <trkpt lat="44.28166" lon="1.44306">
        <ele>269.79</ele>
        <time>2023-09-12T13:33:57Z</time>
      </trkpt>
      <trkpt lat="44.28179" lon="1.44336">
        <ele>269.79</ele>
        <time>2023-09-12T13:34:19Z</time>
      </trkpt>
      <trkpt lat="44.28185" lon="1.44354">
        <ele>269.79</ele>
        <time>2023-09-12T13:34:31Z</time>
      </trkpt>
      <trkpt lat="44.28195" lon="1.44384">
        <ele>269.79</ele>
        <time>2023-09-12T13:34:50Z</time>
      </trkpt>
      <trkpt lat="44.28206" lon="1.44416">
        <ele>269.79</ele>
        <time>2023-09-12T13:35:11Z</time>
      </trkpt>
      <trkpt lat="44.28208" lon="1.44422">
        <ele>269.79</ele>
        <time>2023-09-12T13:35:17Z</time>
      </trkpt>
      <trkpt lat="44.28217" lon="1.44436">
        <ele>269.79</ele>
        <time>2023-09-12T13:35:31Z</time>
      </trkpt>
      <trkpt lat="44.28221" lon="1.4444">
        <ele>270.75</ele>
        <time>2023-09-12T13:35:47Z</time>
      </trkpt>
      <trkpt lat="44.28229" lon="1.4445">
        <ele>272.19</ele>
        <time>2023-09-12T13:36:04Z</time>
      </trkpt>
      <trkpt lat="44.28236" lon="1.44458">
        <ele>272.67</ele>
        <time>2023-09-12T13:36:17Z</time>
      </trkpt>
      <trkpt lat="44.28251" lon="1.44472">
        <ele>273.15</ele>
        <time>2023-09-12T13:36:37Z</time>
      </trkpt>
      <trkpt lat="44.28262" lon="1.44481">
        <ele>273.63</ele>
        <time>2023-09-12T13:36:54Z</time>
      </trkpt>
      <trkpt lat="44.28271" lon="1.44489">
        <ele>273.63</ele>
        <time>2023-09-12T13:37:06Z</time>
      </trkpt>
      <trkpt lat="44.28281" lon="1.44497">
        <ele>273.63</ele>
        <time>2023-09-12T13:37:17Z</time>
      </trkpt>
      <trkpt lat="44.28302" lon="1.44504">
        <ele>273.63</ele>
        <time>2023-09-12T13:37:34Z</time>
      </trkpt>
      <trkpt lat="44.28326" lon="1.44513">
        <ele>273.63</ele>
        <time>2023-09-12T13:37:55Z</time>
      </trkpt>
      <trkpt lat="44.28329" lon="1.44515">
        <ele>272.67</ele>
        <time>2023-09-12T13:37:58Z</time>
      </trkpt>
      <trkpt lat="44.28346" lon="1.44522">
        <ele>272.67</ele>
        <time>2023-09-12T13:38:13Z</time>
      </trkpt>
      <trkpt lat="44.28362" lon="1.44532">
        <ele>272.67</ele>
        <time>2023-09-12T13:38:28Z</time>
      </trkpt>
      <trkpt lat="44.28378" lon="1.44542">
        <ele>272.19</ele>
        <time>2023-09-12T13:38:44Z</time>
      </trkpt>
      <trkpt lat="44.28398" lon="1.44556">
        <ele>272.19</ele>
        <time>2023-09-12T13:39:00Z</time>
      </trkpt>
      <trkpt lat="44.28419" lon="1.4457">
        <ele>271.71</ele>
        <time>2023-09-12T13:39:18Z</time>
      </trkpt>
      <trkpt lat="44.28437" lon="1.44581">
        <ele>271.23</ele>
        <time>2023-09-12T13:39:32Z</time>
      </trkpt>
      <trkpt lat="44.28444" lon="1.44584">
        <ele>271.23</ele>
        <time>2023-09-12T13:39:38Z</time>
      </trkpt>
      <trkpt lat="44.28462" lon="1.44596">
        <ele>270.75</ele>
        <time>2023-09-12T13:39:54Z</time>
      </trkpt>
      <trkpt lat="44.28475" lon="1.44612">
        <ele>270.75</ele>
        <time>2023-09-12T13:40:09Z</time>
      </trkpt>
      <trkpt lat="44.28491" lon="1.44629">
        <ele>270.27</ele>
        <time>2023-09-12T13:40:24Z</time>
      </trkpt>
      <trkpt lat="44.28497" lon="1.44635">
        <ele>270.27</ele>
        <time>2023-09-12T13:40:31Z</time>
      </trkpt>
      <trkpt lat="44.28511" lon="1.4465">
        <ele>270.27</ele>
        <time>2023-09-12T13:40:47Z</time>
      </trkpt>
      <trkpt lat="44.28528" lon="1.44662">
        <ele>270.27</ele>
        <time>2023-09-12T13:41:02Z</time>
      </trkpt>
      <trkpt lat="44.28544" lon="1.44677">
        <ele>270.27</ele>
        <time>2023-09-12T13:41:18Z</time>
      </trkpt>
      <trkpt lat="44.28557" lon="1.44686">
        <ele>268.83</ele>
        <time>2023-09-12T13:41:35Z</time>
      </trkpt>
      <trkpt lat="44.28568" lon="1.44701">
        <ele>267.38</ele>
        <time>2023-09-12T13:41:48Z</time>
      </trkpt>
      <trkpt lat="44.28579" lon="1.4472">
        <ele>264.5</ele>
        <time>2023-09-12T13:42:03Z</time>
      </trkpt>
      <trkpt lat="44.28587" lon="1.44743">
        <ele>262.1</ele>
        <time>2023-09-12T13:42:21Z</time>
      </trkpt>
      <trkpt lat="44.28588" lon="1.44762">
        <ele>260.17</ele>
        <time>2023-09-12T13:42:34Z</time>
      </trkpt>
      <trkpt lat="44.28588" lon="1.44769">
        <ele>259.21</ele>
        <time>2023-09-12T13:42:39Z</time>
      </trkpt>
      <trkpt lat="44.2859" lon="1.44785">
        <ele>256.81</ele>
        <time>2023-09-12T13:42:52Z</time>
      </trkpt>
      <trkpt lat="44.28592" lon="1.44794">
        <ele>256.33</ele>
        <time>2023-09-12T13:42:59Z</time>
      </trkpt>
      <trkpt lat="44.28593" lon="1.44812">
        <ele>254.89</ele>
        <time>2023-09-12T13:43:15Z</time>
      </trkpt>
      <trkpt lat="44.28594" lon="1.4481">
        <ele>253.93</ele>
        <time>2023-09-12T13:43:26Z</time>
      </trkpt>
      <trkpt lat="44.28593" lon="1.4481">
        <ele>253.93</ele>
        <time>2023-09-12T13:44:06Z</time>
      </trkpt>
      <trkpt lat="44.28593" lon="1.4481">
        <ele>253.44</ele>
        <time>2023-09-12T13:44:46Z</time>
      </trkpt>
      <trkpt lat="44.28594" lon="1.44809">
        <ele>253.44</ele>
        <time>2023-09-12T13:45:20Z</time>
      </trkpt>
      <trkpt lat="44.28594" lon="1.44809">
        <ele>253.44</ele>
        <time>2023-09-12T13:45:52Z</time>
      </trkpt>
      <trkpt lat="44.28592" lon="1.4481">
        <ele>253.44</ele>
        <time>2023-09-12T13:46:27Z</time>
      </trkpt>
      <trkpt lat="44.28595" lon="1.44811">
        <ele>254.41</ele>
        <time>2023-09-12T13:46:54Z</time>
      </trkpt>
      <trkpt lat="44.2859" lon="1.44812">
        <ele>255.37</ele>
        <time>2023-09-12T13:47:21Z</time>
      </trkpt>
      <trkpt lat="44.28584" lon="1.44821">
        <ele>255.85</ele>
        <time>2023-09-12T13:47:35Z</time>
      </trkpt>
      <trkpt lat="44.2857" lon="1.44827">
        <ele>259.21</ele>
        <time>2023-09-12T13:47:55Z</time>
      </trkpt>
      <trkpt lat="44.28558" lon="1.44831">
        <ele>261.62</ele>
        <time>2023-09-12T13:48:12Z</time>
      </trkpt>
      <trkpt lat="44.28552" lon="1.44834">
        <ele>262.58</ele>
        <time>2023-09-12T13:48:30Z</time>
      </trkpt>
      <trkpt lat="44.28537" lon="1.44838">
        <ele>264.98</ele>
        <time>2023-09-12T13:48:45Z</time>
      </trkpt>
      <trkpt lat="44.28527" lon="1.44839">
        <ele>265.94</ele>
        <time>2023-09-12T13:48:56Z</time>
      </trkpt>
      <trkpt lat="44.28515" lon="1.44845">
        <ele>267.38</ele>
        <time>2023-09-12T13:49:13Z</time>
      </trkpt>
      <trkpt lat="44.28499" lon="1.44852">
        <ele>268.83</ele>
        <time>2023-09-12T13:49:29Z</time>
      </trkpt>
      <trkpt lat="44.28482" lon="1.44858">
        <ele>269.79</ele>
        <time>2023-09-12T13:49:46Z</time>
      </trkpt>
      <trkpt lat="44.28459" lon="1.44866">
        <ele>269.79</ele>
        <time>2023-09-12T13:50:04Z</time>
      </trkpt>
      <trkpt lat="44.28436" lon="1.44872">
        <ele>269.79</ele>
        <time>2023-09-12T13:50:20Z</time>
      </trkpt>
      <trkpt lat="44.28415" lon="1.44879">
        <ele>269.79</ele>
        <time>2023-09-12T13:50:38Z</time>
      </trkpt>
      <trkpt lat="44.28399" lon="1.44885">
        <ele>269.79</ele>
        <time>2023-09-12T13:50:53Z</time>
      </trkpt>
      <trkpt lat="44.28389" lon="1.44903">
        <ele>268.35</ele>
        <time>2023-09-12T13:51:06Z</time>
      </trkpt>
      <trkpt lat="44.28382" lon="1.44929">
        <ele>268.35</ele>
        <time>2023-09-12T13:51:23Z</time>
      </trkpt>
      <trkpt lat="44.28377" lon="1.4495">
        <ele>268.35</ele>
        <time>2023-09-12T13:51:43Z</time>
      </trkpt>
      <trkpt lat="44.28369" lon="1.44983">
        <ele>268.35</ele>
        <time>2023-09-12T13:52:00Z</time>
      </trkpt>
      <trkpt lat="44.28366" lon="1.45012">
        <ele>267.86</ele>
        <time>2023-09-12T13:52:17Z</time>
      </trkpt>
      <trkpt lat="44.28362" lon="1.45036">
        <ele>267.86</ele>
        <time>2023-09-12T13:52:33Z</time>
      </trkpt>
      <trkpt lat="44.28359" lon="1.45058">
        <ele>267.86</ele>
        <time>2023-09-12T13:52:49Z</time>
      </trkpt>
      <trkpt lat="44.28354" lon="1.45088">
        <ele>267.86</ele>
        <time>2023-09-12T13:53:09Z</time>
      </trkpt>
      <trkpt lat="44.28349" lon="1.45118">
        <ele>268.83</ele>
        <time>2023-09-12T13:53:27Z</time>
      </trkpt>
      <trkpt lat="44.28343" lon="1.45146">
        <ele>269.31</ele>
        <time>2023-09-12T13:53:45Z</time>
      </trkpt>
      <trkpt lat="44.28336" lon="1.45161">
        <ele>269.79</ele>
        <time>2023-09-12T13:53:56Z</time>
      </trkpt>
      <trkpt lat="44.28324" lon="1.45178">
        <ele>269.79</ele>
        <time>2023-09-12T13:54:10Z</time>
      </trkpt>
      <trkpt lat="44.28305" lon="1.45189">
        <ele>269.79</ele>
        <time>2023-09-12T13:54:27Z</time>
      </trkpt>
      <trkpt lat="44.28294" lon="1.45192">
        <ele>268.35</ele>
        <time>2023-09-12T13:54:37Z</time>
      </trkpt>
      <trkpt lat="44.28276" lon="1.45202">
        <ele>268.35</ele>
        <time>2023-09-12T13:54:53Z</time>
      </trkpt>
      <trkpt lat="44.28259" lon="1.45213">
        <ele>267.86</ele>
        <time>2023-09-12T13:55:09Z</time>
      </trkpt>
      <trkpt lat="44.28254" lon="1.45217">
        <ele>267.86</ele>
        <time>2023-09-12T13:55:14Z</time>
      </trkpt>
      <trkpt lat="44.28252" lon="1.45219">
        <ele>267.38</ele>
        <time>2023-09-12T13:55:16Z</time>
      </trkpt>
      <trkpt lat="44.28234" lon="1.45234">
        <ele>266.42</ele>
        <time>2023-09-12T13:55:34Z</time>
      </trkpt>
      <trkpt lat="44.28216" lon="1.45241">
        <ele>265.46</ele>
        <time>2023-09-12T13:55:51Z</time>
      </trkpt>
      <trkpt lat="44.28197" lon="1.45244">
        <ele>265.46</ele>
        <time>2023-09-12T13:56:07Z</time>
      </trkpt>
      <trkpt lat="44.28184" lon="1.45249">
        <ele>264.98</ele>
        <time>2023-09-12T13:56:21Z</time>
      </trkpt>
      <trkpt lat="44.28179" lon="1.45251">
        <ele>264.98</ele>
        <time>2023-09-12T13:56:26Z</time>
      </trkpt>
      <trkpt lat="44.28158" lon="1.45256">
        <ele>264.5</ele>
        <time>2023-09-12T13:56:44Z</time>
      </trkpt>
      <trkpt lat="44.28137" lon="1.45264">
        <ele>264.5</ele>
        <time>2023-09-12T13:57:02Z</time>
      </trkpt>
      <trkpt lat="44.28119" lon="1.45272">
        <ele>264.5</ele>
        <time>2023-09-12T13:57:17Z</time>
      </trkpt>
      <trkpt lat="44.28117" lon="1.45273">
        <ele>264.5</ele>
        <time>2023-09-12T13:57:19Z</time>
      </trkpt>
      <trkpt lat="44.28094" lon="1.45281">
        <ele>265.46</ele>
        <time>2023-09-12T13:57:40Z</time>
      </trkpt>
      <trkpt lat="44.28074" lon="1.45289">
        <ele>265.46</ele>
        <time>2023-09-12T13:57:57Z</time>
      </trkpt>
      <trkpt lat="44.28053" lon="1.45298">
        <ele>264.02</ele>
        <time>2023-09-12T13:58:16Z</time>
      </trkpt>
      <trkpt lat="44.28034" lon="1.45306">
        <ele>263.54</ele>
        <time>2023-09-12T13:58:33Z</time>
      </trkpt>
      <trkpt lat="44.28028" lon="1.45309">
        <ele>263.54</ele>
        <time>2023-09-12T13:58:39Z</time>
      </trkpt>
      <trkpt lat="44.28018" lon="1.45315">
        <ele>263.06</ele>
        <time>2023-09-12T13:58:50Z</time>
      </trkpt>
      <trkpt lat="44.28001" lon="1.45326">
        <ele>262.1</ele>
        <time>2023-09-12T13:59:06Z</time>
      </trkpt>
      <trkpt lat="44.27981" lon="1.45341">
        <ele>262.1</ele>
        <time>2023-09-12T13:59:25Z</time>
      </trkpt>
      <trkpt lat="44.2796" lon="1.45353">
        <ele>262.1</ele>
        <time>2023-09-12T13:59:44Z</time>
      </trkpt>
      <trkpt lat="44.27958" lon="1.45355">
        <ele>263.06</ele>
        <time>2023-09-12T13:59:46Z</time>
      </trkpt>
      <trkpt lat="44.27941" lon="1.45362">
        <ele>263.06</ele>
        <time>2023-09-12T14:00:02Z</time>
      </trkpt>
      <trkpt lat="44.2792" lon="1.45367">
        <ele>263.06</ele>
        <time>2023-09-12T14:00:20Z</time>
      </trkpt>
      <trkpt lat="44.27906" lon="1.45372">
        <ele>262.1</ele>
        <time>2023-09-12T14:00:32Z</time>
      </trkpt>
      <trkpt lat="44.27888" lon="1.45378">
        <ele>261.62</ele>
        <time>2023-09-12T14:00:51Z</time>
      </trkpt>
      <trkpt lat="44.2787" lon="1.45383">
        <ele>261.62</ele>
        <time>2023-09-12T14:01:06Z</time>
      </trkpt>
      <trkpt lat="44.27849" lon="1.45387">
        <ele>260.17</ele>
        <time>2023-09-12T14:01:23Z</time>
      </trkpt>
      <trkpt lat="44.27828" lon="1.4539">
        <ele>259.21</ele>
        <time>2023-09-12T14:01:41Z</time>
      </trkpt>
      <trkpt lat="44.27815" lon="1.45395">
        <ele>258.73</ele>
        <time>2023-09-12T14:01:52Z</time>
      </trkpt>
      <trkpt lat="44.27796" lon="1.45396">
        <ele>257.29</ele>
        <time>2023-09-12T14:02:09Z</time>
      </trkpt>
      <trkpt lat="44.27774" lon="1.45398">
        <ele>255.85</ele>
        <time>2023-09-12T14:02:28Z</time>
      </trkpt>
      <trkpt lat="44.27753" lon="1.45401">
        <ele>255.37</ele>
        <time>2023-09-12T14:02:46Z</time>
      </trkpt>
      <trkpt lat="44.27732" lon="1.45401">
        <ele>254.41</ele>
        <time>2023-09-12T14:03:04Z</time>
      </trkpt>
      <trkpt lat="44.27716" lon="1.45406">
        <ele>253.93</ele>
        <time>2023-09-12T14:03:17Z</time>
      </trkpt>
      <trkpt lat="44.27714" lon="1.45408">
        <ele>253.93</ele>
        <time>2023-09-12T14:03:19Z</time>
      </trkpt>
      <trkpt lat="44.27694" lon="1.45422">
        <ele>252.96</ele>
        <time>2023-09-12T14:03:38Z</time>
      </trkpt>
      <trkpt lat="44.2768" lon="1.45435">
        <ele>252</ele>
        <time>2023-09-12T14:03:55Z</time>
      </trkpt>
      <trkpt lat="44.27669" lon="1.45445">
        <ele>251.52</ele>
        <time>2023-09-12T14:04:10Z</time>
      </trkpt>
      <trkpt lat="44.27652" lon="1.45463">
        <ele>251.04</ele>
        <time>2023-09-12T14:04:29Z</time>
      </trkpt>
      <trkpt lat="44.27638" lon="1.45479">
        <ele>251.04</ele>
        <time>2023-09-12T14:04:44Z</time>
      </trkpt>
      <trkpt lat="44.2763" lon="1.45505">
        <ele>250.08</ele>
        <time>2023-09-12T14:05:00Z</time>
      </trkpt>
      <trkpt lat="44.27623" lon="1.45535">
        <ele>249.12</ele>
        <time>2023-09-12T14:05:19Z</time>
      </trkpt>
      <trkpt lat="44.27618" lon="1.45557">
        <ele>248.16</ele>
        <time>2023-09-12T14:05:37Z</time>
      </trkpt>
      <trkpt lat="44.27614" lon="1.45572">
        <ele>246.72</ele>
        <time>2023-09-12T14:05:50Z</time>
      </trkpt>
      <trkpt lat="44.27604" lon="1.45597">
        <ele>245.27</ele>
        <time>2023-09-12T14:06:07Z</time>
      </trkpt>
      <trkpt lat="44.27594" lon="1.45624">
        <ele>243.35</ele>
        <time>2023-09-12T14:06:26Z</time>
      </trkpt>
      <trkpt lat="44.27593" lon="1.45645">
        <ele>240.47</ele>
        <time>2023-09-12T14:06:41Z</time>
      </trkpt>
      <trkpt lat="44.27591" lon="1.45663">
        <ele>237.58</ele>
        <time>2023-09-12T14:06:56Z</time>
      </trkpt>
      <trkpt lat="44.27585" lon="1.45668">
        <ele>235.66</ele>
        <time>2023-09-12T14:07:03Z</time>
      </trkpt>
      <trkpt lat="44.2757" lon="1.45671">
        <ele>233.74</ele>
        <time>2023-09-12T14:07:18Z</time>
      </trkpt>
      <trkpt lat="44.27553" lon="1.45667">
        <ele>230.85</ele>
        <time>2023-09-12T14:07:35Z</time>
      </trkpt>
      <trkpt lat="44.2754" lon="1.45671">
        <ele>227.49</ele>
        <time>2023-09-12T14:07:50Z</time>
      </trkpt>
      <trkpt lat="44.27527" lon="1.45673">
        <ele>225.09</ele>
        <time>2023-09-12T14:08:05Z</time>
      </trkpt>
      <trkpt lat="44.27519" lon="1.45673">
        <ele>223.64</ele>
        <time>2023-09-12T14:08:21Z</time>
      </trkpt>
      <trkpt lat="44.27507" lon="1.45672">
        <ele>220.28</ele>
        <time>2023-09-12T14:08:31Z</time>
      </trkpt>
      <trkpt lat="44.27491" lon="1.4567">
        <ele>217.88</ele>
        <time>2023-09-12T14:08:46Z</time>
      </trkpt>
      <trkpt lat="44.2749" lon="1.45671">
        <ele>216.91</ele>
        <time>2023-09-12T14:08:47Z</time>
      </trkpt>
      <trkpt lat="44.27479" lon="1.45671">
        <ele>215.47</ele>
        <time>2023-09-12T14:09:01Z</time>
      </trkpt>
      <trkpt lat="44.27472" lon="1.45672">
        <ele>214.03</ele>
        <time>2023-09-12T14:09:08Z</time>
      </trkpt>
      <trkpt lat="44.27468" lon="1.45671">
        <ele>213.55</ele>
        <time>2023-09-12T14:09:12Z</time>
      </trkpt>
      <trkpt lat="44.27447" lon="1.4567">
        <ele>210.67</ele>
        <time>2023-09-12T14:09:32Z</time>
      </trkpt>
      <trkpt lat="44.27426" lon="1.45668">
        <ele>208.26</ele>
        <time>2023-09-12T14:09:51Z</time>
      </trkpt>
      <trkpt lat="44.2741" lon="1.45665">
        <ele>206.82</ele>
        <time>2023-09-12T14:10:06Z</time>
      </trkpt>
      <trkpt lat="44.27393" lon="1.45664">
        <ele>203.46</ele>
        <time>2023-09-12T14:10:22Z</time>
      </trkpt>
      <trkpt lat="44.27377" lon="1.45661">
        <ele>202.01</ele>
        <time>2023-09-12T14:10:37Z</time>
      </trkpt>
      <trkpt lat="44.27361" lon="1.45656">
        <ele>199.61</ele>
        <time>2023-09-12T14:10:53Z</time>
      </trkpt>
      <trkpt lat="44.27341" lon="1.4565">
        <ele>197.21</ele>
        <time>2023-09-12T14:11:12Z</time>
      </trkpt>
      <trkpt lat="44.27322" lon="1.4564">
        <ele>195.28</ele>
        <time>2023-09-12T14:11:30Z</time>
      </trkpt>
      <trkpt lat="44.27305" lon="1.45627">
        <ele>193.36</ele>
        <time>2023-09-12T14:11:48Z</time>
      </trkpt>
      <trkpt lat="44.27293" lon="1.45614">
        <ele>192.88</ele>
        <time>2023-09-12T14:12:04Z</time>
      </trkpt>
      <trkpt lat="44.2729" lon="1.45604">
        <ele>191.92</ele>
        <time>2023-09-12T14:12:19Z</time>
      </trkpt>
      <trkpt lat="44.27288" lon="1.45598">
        <ele>191.92</ele>
        <time>2023-09-12T14:12:23Z</time>
      </trkpt>
      <trkpt lat="44.27287" lon="1.45595">
        <ele>191.92</ele>
        <time>2023-09-12T14:12:31Z</time>
      </trkpt>
      <trkpt lat="44.27274" lon="1.45583">
        <ele>191.44</ele>
        <time>2023-09-12T14:12:44Z</time>
      </trkpt>
      <trkpt lat="44.27266" lon="1.45579">
        <ele>190</ele>
        <time>2023-09-12T14:13:00Z</time>
      </trkpt>
      <trkpt lat="44.27265" lon="1.45578">
        <ele>189.04</ele>
        <time>2023-09-12T14:13:11Z</time>
      </trkpt>
      <trkpt lat="44.27267" lon="1.45582">
        <ele>189.04</ele>
        <time>2023-09-12T14:13:33Z</time>
      </trkpt>
      <trkpt lat="44.27257" lon="1.45567">
        <ele>188.56</ele>
        <time>2023-09-12T14:13:54Z</time>
      </trkpt>
      <trkpt lat="44.27239" lon="1.45544">
        <ele>186.63</ele>
        <time>2023-09-12T14:14:13Z</time>
      </trkpt>
      <trkpt lat="44.27218" lon="1.45523">
        <ele>185.19</ele>
        <time>2023-09-12T14:14:33Z</time>
      </trkpt>
      <trkpt lat="44.27201" lon="1.45505">
        <ele>184.23</ele>
        <time>2023-09-12T14:14:51Z</time>
      </trkpt>
      <trkpt lat="44.27185" lon="1.45483">
        <ele>182.79</ele>
        <time>2023-09-12T14:15:10Z</time>
      </trkpt>
      <trkpt lat="44.2717" lon="1.45464">
        <ele>182.31</ele>
        <time>2023-09-12T14:15:28Z</time>
      </trkpt>
      <trkpt lat="44.27167" lon="1.45461">
        <ele>181.83</ele>
        <time>2023-09-12T14:15:31Z</time>
      </trkpt>
      <trkpt lat="44.27156" lon="1.45467">
        <ele>181.83</ele>
        <time>2023-09-12T14:15:46Z</time>
      </trkpt>
      <trkpt lat="44.27155" lon="1.45469">
        <ele>181.83</ele>
        <time>2023-09-12T14:15:48Z</time>
      </trkpt>
      <trkpt lat="44.27141" lon="1.45494">
        <ele>181.83</ele>
        <time>2023-09-12T14:16:09Z</time>
      </trkpt>
      <trkpt lat="44.27125" lon="1.45519">
        <ele>181.35</ele>
        <time>2023-09-12T14:16:28Z</time>
      </trkpt>
      <trkpt lat="44.27123" lon="1.45521">
        <ele>181.35</ele>
        <time>2023-09-12T14:16:30Z</time>
      </trkpt>
      <trkpt lat="44.27109" lon="1.45532">
        <ele>181.35</ele>
        <time>2023-09-12T14:16:47Z</time>
      </trkpt>
      <trkpt lat="44.27091" lon="1.45545">
        <ele>181.35</ele>
        <time>2023-09-12T14:17:06Z</time>
      </trkpt>
      <trkpt lat="44.27076" lon="1.45552">
        <ele>181.35</ele>
        <time>2023-09-12T14:17:21Z</time>
      </trkpt>
      <trkpt lat="44.27055" lon="1.45565">
        <ele>180.87</ele>
        <time>2023-09-12T14:17:39Z</time>
      </trkpt>
      <trkpt lat="44.27039" lon="1.45573">
        <ele>179.9</ele>
        <time>2023-09-12T14:17:54Z</time>
      </trkpt>
      <trkpt lat="44.27016" lon="1.45586">
        <ele>178.94</ele>
        <time>2023-09-12T14:18:14Z</time>
      </trkpt>
      <trkpt lat="44.26997" lon="1.45597">
        <ele>178.46</ele>
        <time>2023-09-12T14:18:30Z</time>
      </trkpt>
      <trkpt lat="44.26987" lon="1.45602">
        <ele>177.98</ele>
        <time>2023-09-12T14:18:41Z</time>
      </trkpt>
      <trkpt lat="44.26969" lon="1.45612">
        <ele>176.06</ele>
        <time>2023-09-12T14:19:01Z</time>
      </trkpt>
      <trkpt lat="44.26965" lon="1.45614">
        <ele>175.58</ele>
        <time>2023-09-12T14:19:05Z</time>
      </trkpt>
      <trkpt lat="44.26943" lon="1.45625">
        <ele>173.66</ele>
        <time>2023-09-12T14:19:23Z</time>
      </trkpt>
      <trkpt lat="44.26921" lon="1.45627">
        <ele>170.77</ele>
        <time>2023-09-12T14:19:42Z</time>
      </trkpt>
      <trkpt lat="44.26914" lon="1.45613">
        <ele>168.37</ele>
        <time>2023-09-12T14:19:58Z</time>
      </trkpt>
      <trkpt lat="44.26912" lon="1.45604">
        <ele>167.41</ele>
        <time>2023-09-12T14:20:06Z</time>
      </trkpt>
      <trkpt lat="44.2691" lon="1.45598">
        <ele>166.93</ele>
        <time>2023-09-12T14:20:11Z</time>
      </trkpt>
      <trkpt lat="44.26893" lon="1.45602">
        <ele>164.04</ele>
        <time>2023-09-12T14:20:27Z</time>
      </trkpt>
      <trkpt lat="44.26875" lon="1.45619">
        <ele>161.64</ele>
        <time>2023-09-12T14:20:45Z</time>
      </trkpt>
      <trkpt lat="44.2686" lon="1.45622">
        <ele>161.16</ele>
        <time>2023-09-12T14:21:02Z</time>
      </trkpt>
      <trkpt lat="44.26839" lon="1.45608">
        <ele>160.68</ele>
        <time>2023-09-12T14:21:21Z</time>
      </trkpt>
      <trkpt lat="44.26824" lon="1.45591">
        <ele>160.68</ele>
        <time>2023-09-12T14:21:37Z</time>
      </trkpt>
      <trkpt lat="44.26809" lon="1.45574">
        <ele>161.64</ele>
        <time>2023-09-12T14:21:54Z</time>
      </trkpt>
      <trkpt lat="44.26812" lon="1.45566">
        <ele>160.2</ele>
        <time>2023-09-12T14:22:13Z</time>
      </trkpt>
      <trkpt lat="44.26807" lon="1.45572">
        <ele>161.16</ele>
        <time>2023-09-12T14:22:37Z</time>
      </trkpt>
      <trkpt lat="44.26795" lon="1.45571">
        <ele>161.64</ele>
        <time>2023-09-12T14:22:54Z</time>
      </trkpt>
      <trkpt lat="44.26774" lon="1.45566">
        <ele>163.08</ele>
        <time>2023-09-12T14:23:13Z</time>
      </trkpt>
      <trkpt lat="44.26768" lon="1.45563">
        <ele>163.56</ele>
        <time>2023-09-12T14:23:30Z</time>
      </trkpt>
      <trkpt lat="44.26764" lon="1.4556">
        <ele>163.56</ele>
        <time>2023-09-12T14:23:57Z</time>
      </trkpt>
      <trkpt lat="44.26755" lon="1.45561">
        <ele>164.04</ele>
        <time>2023-09-12T14:24:14Z</time>
      </trkpt>
      <trkpt lat="44.26747" lon="1.45564">
        <ele>164.52</ele>
        <time>2023-09-12T14:24:30Z</time>
      </trkpt>
      <trkpt lat="44.2674" lon="1.45567">
        <ele>165</ele>
        <time>2023-09-12T14:24:51Z</time>
      </trkpt>
      <trkpt lat="44.2675" lon="1.45568">
        <ele>165</ele>
        <time>2023-09-12T14:25:08Z</time>
      </trkpt>
      <trkpt lat="44.26753" lon="1.45575">
        <ele>163.56</ele>
        <time>2023-09-12T14:25:13Z</time>
      </trkpt>
      <trkpt lat="44.26753" lon="1.45588">
        <ele>164.04</ele>
        <time>2023-09-12T14:25:26Z</time>
      </trkpt>
      <trkpt lat="44.26749" lon="1.45597">
        <ele>165</ele>
        <time>2023-09-12T14:25:35Z</time>
      </trkpt>
      <trkpt lat="44.2674" lon="1.45611">
        <ele>166.45</ele>
        <time>2023-09-12T14:25:49Z</time>
      </trkpt>
      <trkpt lat="44.26729" lon="1.45633">
        <ele>167.41</ele>
        <time>2023-09-12T14:26:06Z</time>
      </trkpt>
      <trkpt lat="44.26719" lon="1.45647">
        <ele>168.37</ele>
        <time>2023-09-12T14:26:22Z</time>
      </trkpt>
      <trkpt lat="44.26703" lon="1.45657">
        <ele>168.85</ele>
        <time>2023-09-12T14:26:39Z</time>
      </trkpt>
      <trkpt lat="44.26689" lon="1.4567">
        <ele>169.33</ele>
        <time>2023-09-12T14:26:55Z</time>
      </trkpt>
      <trkpt lat="44.26677" lon="1.4568">
        <ele>170.29</ele>
        <time>2023-09-12T14:27:09Z</time>
      </trkpt>
      <trkpt lat="44.26666" lon="1.45693">
        <ele>170.29</ele>
        <time>2023-09-12T14:27:25Z</time>
      </trkpt>
      <trkpt lat="44.26647" lon="1.45705">
        <ele>170.77</ele>
        <time>2023-09-12T14:27:42Z</time>
      </trkpt>
      <trkpt lat="44.26633" lon="1.45715">
        <ele>171.25</ele>
        <time>2023-09-12T14:27:57Z</time>
      </trkpt>
      <trkpt lat="44.26621" lon="1.45736">
        <ele>171.25</ele>
        <time>2023-09-12T14:28:14Z</time>
      </trkpt>
      <trkpt lat="44.26614" lon="1.45751">
        <ele>171.25</ele>
        <time>2023-09-12T14:28:24Z</time>
      </trkpt>
      <trkpt lat="44.26604" lon="1.45778">
        <ele>171.73</ele>
        <time>2023-09-12T14:28:41Z</time>
      </trkpt>
      <trkpt lat="44.26598" lon="1.458">
        <ele>172.21</ele>
        <time>2023-09-12T14:28:56Z</time>
      </trkpt>
      <trkpt lat="44.26592" lon="1.45825">
        <ele>172.69</ele>
        <time>2023-09-12T14:29:14Z</time>
      </trkpt>
      <trkpt lat="44.26593" lon="1.45851">
        <ele>172.69</ele>
        <time>2023-09-12T14:29:30Z</time>
      </trkpt>
      <trkpt lat="44.26593" lon="1.45857">
        <ele>171.25</ele>
        <time>2023-09-12T14:29:34Z</time>
      </trkpt>
      <trkpt lat="44.26592" lon="1.4589">
        <ele>171.25</ele>
        <time>2023-09-12T14:29:51Z</time>
      </trkpt>
      <trkpt lat="44.2659" lon="1.45907">
        <ele>171.25</ele>
        <time>2023-09-12T14:30:07Z</time>
      </trkpt>
      <trkpt lat="44.26593" lon="1.45913">
        <ele>171.25</ele>
        <time>2023-09-12T14:30:21Z</time>
      </trkpt>
      <trkpt lat="44.26595" lon="1.45913">
        <ele>172.21</ele>
        <time>2023-09-12T14:30:26Z</time>
      </trkpt>
      <trkpt lat="44.26592" lon="1.45912">
        <ele>171.25</ele>
        <time>2023-09-12T14:31:09Z</time>
      </trkpt>
      <trkpt lat="44.26595" lon="1.45917">
        <ele>171.25</ele>
        <time>2023-09-12T14:31:44Z</time>
      </trkpt>
      <trkpt lat="44.26588" lon="1.45925">
        <ele>171.25</ele>
        <time>2023-09-12T14:31:58Z</time>
      </trkpt>
      <trkpt lat="44.26587" lon="1.45928">
        <ele>173.66</ele>
        <time>2023-09-12T14:32:15Z</time>
      </trkpt>
      <trkpt lat="44.26588" lon="1.45928">
        <ele>172.21</ele>
        <time>2023-09-12T14:32:18Z</time>
      </trkpt>
      <trkpt lat="44.26593" lon="1.45926">
        <ele>172.21</ele>
        <time>2023-09-12T14:32:43Z</time>
      </trkpt>
      <trkpt lat="44.26594" lon="1.45928">
        <ele>172.21</ele>
        <time>2023-09-12T14:32:58Z</time>
      </trkpt>
      <trkpt lat="44.26592" lon="1.45927">
        <ele>172.21</ele>
        <time>2023-09-12T14:33:05Z</time>
      </trkpt>
      <trkpt lat="44.26586" lon="1.45935">
        <ele>172.21</ele>
        <time>2023-09-12T14:33:17Z</time>
      </trkpt>
      <trkpt lat="44.26585" lon="1.45944">
        <ele>172.21</ele>
        <time>2023-09-12T14:33:23Z</time>
      </trkpt>
      <trkpt lat="44.26579" lon="1.45961">
        <ele>172.21</ele>
        <time>2023-09-12T14:33:35Z</time>
      </trkpt>
      <trkpt lat="44.26571" lon="1.4598">
        <ele>172.21</ele>
        <time>2023-09-12T14:33:50Z</time>
      </trkpt>
      <trkpt lat="44.26561" lon="1.46003">
        <ele>172.21</ele>
        <time>2023-09-12T14:34:05Z</time>
      </trkpt>
      <trkpt lat="44.26549" lon="1.46024">
        <ele>172.21</ele>
        <time>2023-09-12T14:34:21Z</time>
      </trkpt>
      <trkpt lat="44.26554" lon="1.46051">
        <ele>173.66</ele>
        <time>2023-09-12T14:34:35Z</time>
      </trkpt>
      <trkpt lat="44.26558" lon="1.46085">
        <ele>173.66</ele>
        <time>2023-09-12T14:34:55Z</time>
      </trkpt>
      <trkpt lat="44.26558" lon="1.46089">
        <ele>174.14</ele>
        <time>2023-09-12T14:35:09Z</time>
      </trkpt>
      <trkpt lat="44.26556" lon="1.46112">
        <ele>174.14</ele>
        <time>2023-09-12T14:35:24Z</time>
      </trkpt>
      <trkpt lat="44.26551" lon="1.46143">
        <ele>176.06</ele>
        <time>2023-09-12T14:35:42Z</time>
      </trkpt>
      <trkpt lat="44.26547" lon="1.46156">
        <ele>176.54</ele>
        <time>2023-09-12T14:35:57Z</time>
      </trkpt>
      <trkpt lat="44.2654" lon="1.46165">
        <ele>176.54</ele>
        <time>2023-09-12T14:36:16Z</time>
      </trkpt>
      <trkpt lat="44.26527" lon="1.46182">
        <ele>177.5</ele>
        <time>2023-09-12T14:36:31Z</time>
      </trkpt>
      <trkpt lat="44.26511" lon="1.46206">
        <ele>178.46</ele>
        <time>2023-09-12T14:36:50Z</time>
      </trkpt>
      <trkpt lat="44.26504" lon="1.46224">
        <ele>179.42</ele>
        <time>2023-09-12T14:37:02Z</time>
      </trkpt>
      <trkpt lat="44.26494" lon="1.46252">
        <ele>179.42</ele>
        <time>2023-09-12T14:37:20Z</time>
      </trkpt>
      <trkpt lat="44.26489" lon="1.4628">
        <ele>180.87</ele>
        <time>2023-09-12T14:37:36Z</time>
      </trkpt>
      <trkpt lat="44.26487" lon="1.46307">
        <ele>182.79</ele>
        <time>2023-09-12T14:37:52Z</time>
      </trkpt>
      <trkpt lat="44.26486" lon="1.46314">
        <ele>182.79</ele>
        <time>2023-09-12T14:37:57Z</time>
      </trkpt>
      <trkpt lat="44.26479" lon="1.46337">
        <ele>184.23</ele>
        <time>2023-09-12T14:38:13Z</time>
      </trkpt>
      <trkpt lat="44.26481" lon="1.46345">
        <ele>185.67</ele>
        <time>2023-09-12T14:38:21Z</time>
      </trkpt>
      <trkpt lat="44.26492" lon="1.46346">
        <ele>184.23</ele>
        <time>2023-09-12T14:38:34Z</time>
      </trkpt>
      <trkpt lat="44.26502" lon="1.46344">
        <ele>183.75</ele>
        <time>2023-09-12T14:38:47Z</time>
      </trkpt>
      <trkpt lat="44.26508" lon="1.46346">
        <ele>182.79</ele>
        <time>2023-09-12T14:38:53Z</time>
      </trkpt>
      <trkpt lat="44.26521" lon="1.46357">
        <ele>180.87</ele>
        <time>2023-09-12T14:39:07Z</time>
      </trkpt>
      <trkpt lat="44.2653" lon="1.46361">
        <ele>177.98</ele>
        <time>2023-09-12T14:39:22Z</time>
      </trkpt>
      <trkpt lat="44.26541" lon="1.46365">
        <ele>175.58</ele>
        <time>2023-09-12T14:39:38Z</time>
      </trkpt>
      <trkpt lat="44.26551" lon="1.46372">
        <ele>172.69</ele>
        <time>2023-09-12T14:39:51Z</time>
      </trkpt>
      <trkpt lat="44.26559" lon="1.46381">
        <ele>169.81</ele>
        <time>2023-09-12T14:40:02Z</time>
      </trkpt>
      <trkpt lat="44.26573" lon="1.46392">
        <ele>169.33</ele>
        <time>2023-09-12T14:40:17Z</time>
      </trkpt>
      <trkpt lat="44.26574" lon="1.46393">
        <ele>168.85</ele>
        <time>2023-09-12T14:40:18Z</time>
      </trkpt>
      <trkpt lat="44.26576" lon="1.46399">
        <ele>168.37</ele>
        <time>2023-09-12T14:40:22Z</time>
      </trkpt>
      <trkpt lat="44.26578" lon="1.46406">
        <ele>167.89</ele>
        <time>2023-09-12T14:40:26Z</time>
      </trkpt>
      <trkpt lat="44.26582" lon="1.46412">
        <ele>169.33</ele>
        <time>2023-09-12T14:40:34Z</time>
      </trkpt>
      <trkpt lat="44.26592" lon="1.46429">
        <ele>171.73</ele>
        <time>2023-09-12T14:40:49Z</time>
      </trkpt>
      <trkpt lat="44.26601" lon="1.46447">
        <ele>172.21</ele>
        <time>2023-09-12T14:41:03Z</time>
      </trkpt>
      <trkpt lat="44.26609" lon="1.46465">
        <ele>172.69</ele>
        <time>2023-09-12T14:41:18Z</time>
      </trkpt>
      <trkpt lat="44.26617" lon="1.4648">
        <ele>171.25</ele>
        <time>2023-09-12T14:41:30Z</time>
      </trkpt>
      <trkpt lat="44.26625" lon="1.46495">
        <ele>171.25</ele>
        <time>2023-09-12T14:41:43Z</time>
      </trkpt>
      <trkpt lat="44.26629" lon="1.46518">
        <ele>170.77</ele>
        <time>2023-09-12T14:41:59Z</time>
      </trkpt>
      <trkpt lat="44.26622" lon="1.46544">
        <ele>170.77</ele>
        <time>2023-09-12T14:42:17Z</time>
      </trkpt>
      <trkpt lat="44.26616" lon="1.46559">
        <ele>170.77</ele>
        <time>2023-09-12T14:42:27Z</time>
      </trkpt>
      <trkpt lat="44.26606" lon="1.4659">
        <ele>170.77</ele>
        <time>2023-09-12T14:42:46Z</time>
      </trkpt>
      <trkpt lat="44.26606" lon="1.46592">
        <ele>172.21</ele>
        <time>2023-09-12T14:42:48Z</time>
      </trkpt>
      <trkpt lat="44.26606" lon="1.46593">
        <ele>172.21</ele>
        <time>2023-09-12T14:42:49Z</time>
      </trkpt>
      <trkpt lat="44.26611" lon="1.46614">
        <ele>170.77</ele>
        <time>2023-09-12T14:43:04Z</time>
      </trkpt>
      <trkpt lat="44.26613" lon="1.46616">
        <ele>170.77</ele>
        <time>2023-09-12T14:43:06Z</time>
      </trkpt>
      <trkpt lat="44.26626" lon="1.46627">
        <ele>169.33</ele>
        <time>2023-09-12T14:43:20Z</time>
      </trkpt>
      <trkpt lat="44.26641" lon="1.4663">
        <ele>169.33</ele>
        <time>2023-09-12T14:43:35Z</time>
      </trkpt>
      <trkpt lat="44.26654" lon="1.46631">
        <ele>169.33</ele>
        <time>2023-09-12T14:43:47Z</time>
      </trkpt>
      <trkpt lat="44.26655" lon="1.46627">
        <ele>169.33</ele>
        <time>2023-09-12T14:43:50Z</time>
      </trkpt>
      <trkpt lat="44.26664" lon="1.46617">
        <ele>169.33</ele>
        <time>2023-09-12T14:44:03Z</time>
      </trkpt>
      <trkpt lat="44.2667" lon="1.46612">
        <ele>170.29</ele>
        <time>2023-09-12T14:44:17Z</time>
      </trkpt>
      <trkpt lat="44.26681" lon="1.46602">
        <ele>172.21</ele>
        <time>2023-09-12T14:44:31Z</time>
      </trkpt>
      <trkpt lat="44.26685" lon="1.466">
        <ele>172.69</ele>
        <time>2023-09-12T14:44:36Z</time>
      </trkpt>
      <trkpt lat="44.26705" lon="1.46618">
        <ele>172.69</ele>
        <time>2023-09-12T14:44:54Z</time>
      </trkpt>
      <trkpt lat="44.26709" lon="1.46626">
        <ele>172.69</ele>
        <time>2023-09-12T14:45:02Z</time>
      </trkpt>
      <trkpt lat="44.26719" lon="1.46646">
        <ele>172.69</ele>
        <time>2023-09-12T14:45:18Z</time>
      </trkpt>
      <trkpt lat="44.26727" lon="1.4667">
        <ele>172.69</ele>
        <time>2023-09-12T14:45:36Z</time>
      </trkpt>
      <trkpt lat="44.2673" lon="1.46682">
        <ele>171.25</ele>
        <time>2023-09-12T14:45:43Z</time>
      </trkpt>
      <trkpt lat="44.26723" lon="1.467">
        <ele>170.77</ele>
        <time>2023-09-12T14:45:58Z</time>
      </trkpt>
      <trkpt lat="44.26707" lon="1.467">
        <ele>170.29</ele>
        <time>2023-09-12T14:46:14Z</time>
      </trkpt>
      <trkpt lat="44.26706" lon="1.467">
        <ele>170.29</ele>
        <time>2023-09-12T14:46:15Z</time>
      </trkpt>
      <trkpt lat="44.26696" lon="1.46699">
        <ele>169.81</ele>
        <time>2023-09-12T14:46:25Z</time>
      </trkpt>
      <trkpt lat="44.26683" lon="1.46711">
        <ele>169.33</ele>
        <time>2023-09-12T14:46:42Z</time>
      </trkpt>
      <trkpt lat="44.26679" lon="1.46711">
        <ele>168.85</ele>
        <time>2023-09-12T14:47:01Z</time>
      </trkpt>
      <trkpt lat="44.26679" lon="1.46712">
        <ele>168.37</ele>
        <time>2023-09-12T14:47:31Z</time>
      </trkpt>
      <trkpt lat="44.26679" lon="1.46712">
        <ele>169.81</ele>
        <time>2023-09-12T14:47:57Z</time>
      </trkpt>
      <trkpt lat="44.26678" lon="1.46709">
        <ele>170.29</ele>
        <time>2023-09-12T14:48:22Z</time>
      </trkpt>
      <trkpt lat="44.26672" lon="1.46721">
        <ele>170.29</ele>
        <time>2023-09-12T14:48:38Z</time>
      </trkpt>
      <trkpt lat="44.26664" lon="1.46738">
        <ele>170.77</ele>
        <time>2023-09-12T14:48:53Z</time>
      </trkpt>
      <trkpt lat="44.26654" lon="1.46753">
        <ele>171.25</ele>
        <time>2023-09-12T14:49:08Z</time>
      </trkpt>
      <trkpt lat="44.26643" lon="1.46765">
        <ele>171.73</ele>
        <time>2023-09-12T14:49:21Z</time>
      </trkpt>
      <trkpt lat="44.26626" lon="1.46773">
        <ele>171.25</ele>
        <time>2023-09-12T14:49:35Z</time>
      </trkpt>
      <trkpt lat="44.26616" lon="1.4678">
        <ele>171.25</ele>
        <time>2023-09-12T14:49:44Z</time>
      </trkpt>
      <trkpt lat="44.26596" lon="1.46795">
        <ele>171.73</ele>
        <time>2023-09-12T14:50:02Z</time>
      </trkpt>
      <trkpt lat="44.26578" lon="1.46814">
        <ele>171.73</ele>
        <time>2023-09-12T14:50:21Z</time>
      </trkpt>
      <trkpt lat="44.26564" lon="1.46831">
        <ele>172.21</ele>
        <time>2023-09-12T14:50:37Z</time>
      </trkpt>
      <trkpt lat="44.26561" lon="1.46834">
        <ele>172.21</ele>
        <time>2023-09-12T14:50:39Z</time>
      </trkpt>
      <trkpt lat="44.26547" lon="1.46849">
        <ele>172.21</ele>
        <time>2023-09-12T14:50:54Z</time>
      </trkpt>
      <trkpt lat="44.26538" lon="1.46851">
        <ele>173.17</ele>
        <time>2023-09-12T14:51:03Z</time>
      </trkpt>
      <trkpt lat="44.26528" lon="1.46837">
        <ele>173.17</ele>
        <time>2023-09-12T14:51:19Z</time>
      </trkpt>
      <trkpt lat="44.26526" lon="1.4682">
        <ele>173.17</ele>
        <time>2023-09-12T14:51:32Z</time>
      </trkpt>
      <trkpt lat="44.26527" lon="1.46798">
        <ele>173.17</ele>
        <time>2023-09-12T14:51:44Z</time>
      </trkpt>
      <trkpt lat="44.26533" lon="1.46773">
        <ele>173.17</ele>
        <time>2023-09-12T14:51:58Z</time>
      </trkpt>
      <trkpt lat="44.26541" lon="1.46753">
        <ele>173.17</ele>
        <time>2023-09-12T14:52:12Z</time>
      </trkpt>
      <trkpt lat="44.26546" lon="1.46742">
        <ele>171.73</ele>
        <time>2023-09-12T14:52:20Z</time>
      </trkpt>
      <trkpt lat="44.26547" lon="1.46738">
        <ele>171.73</ele>
        <time>2023-09-12T14:52:23Z</time>
      </trkpt>
      <trkpt lat="44.26555" lon="1.46723">
        <ele>171.25</ele>
        <time>2023-09-12T14:52:35Z</time>
      </trkpt>
      <trkpt lat="44.26557" lon="1.46715">
        <ele>171.25</ele>
        <time>2023-09-12T14:52:41Z</time>
      </trkpt>
      <trkpt lat="44.26559" lon="1.46713">
        <ele>171.25</ele>
        <time>2023-09-12T14:52:43Z</time>
      </trkpt>
      <trkpt lat="44.26559" lon="1.46695">
        <ele>172.21</ele>
        <time>2023-09-12T14:52:59Z</time>
      </trkpt>
      <trkpt lat="44.26559" lon="1.46677">
        <ele>172.69</ele>
        <time>2023-09-12T14:53:14Z</time>
      </trkpt>
      <trkpt lat="44.26558" lon="1.46675">
        <ele>171.25</ele>
        <time>2023-09-12T14:53:34Z</time>
      </trkpt>
      <trkpt lat="44.2656" lon="1.46674">
        <ele>171.25</ele>
        <time>2023-09-12T14:54:02Z</time>
      </trkpt>
      <trkpt lat="44.2656" lon="1.46672">
        <ele>172.21</ele>
        <time>2023-09-12T14:54:31Z</time>
      </trkpt>
      <trkpt lat="44.26565" lon="1.46663">
        <ele>172.21</ele>
        <time>2023-09-12T14:55:04Z</time>
      </trkpt>
      <trkpt lat="44.26568" lon="1.46654">
        <ele>172.21</ele>
        <time>2023-09-12T14:55:12Z</time>
      </trkpt>
      <trkpt lat="44.26577" lon="1.46637">
        <ele>170.77</ele>
        <time>2023-09-12T14:55:28Z</time>
      </trkpt>
      <trkpt lat="44.26587" lon="1.46624">
        <ele>170.77</ele>
        <time>2023-09-12T14:55:41Z</time>
      </trkpt>
      <trkpt lat="44.2659" lon="1.4661">
        <ele>172.21</ele>
        <time>2023-09-12T14:55:56Z</time>
      </trkpt>
      <trkpt lat="44.26589" lon="1.46604">
        <ele>170.77</ele>
        <time>2023-09-12T14:56:09Z</time>
      </trkpt>
      <trkpt lat="44.26588" lon="1.46609">
        <ele>170.77</ele>
        <time>2023-09-12T14:56:44Z</time>
      </trkpt>
      <trkpt lat="44.26585" lon="1.46615">
        <ele>171.25</ele>
        <time>2023-09-12T14:56:58Z</time>
      </trkpt>
      <trkpt lat="44.26568" lon="1.46635">
        <ele>171.25</ele>
        <time>2023-09-12T14:57:18Z</time>
      </trkpt>
      <trkpt lat="44.26556" lon="1.46652">
        <ele>172.21</ele>
        <time>2023-09-12T14:57:32Z</time>
      </trkpt>
      <trkpt lat="44.26555" lon="1.46653">
        <ele>172.21</ele>
        <time>2023-09-12T14:57:33Z</time>
      </trkpt>
      <trkpt lat="44.26543" lon="1.46669">
        <ele>173.17</ele>
        <time>2023-09-12T14:57:48Z</time>
      </trkpt>
      <trkpt lat="44.26532" lon="1.46684">
        <ele>173.66</ele>
        <time>2023-09-12T14:58:03Z</time>
      </trkpt>
      <trkpt lat="44.26535" lon="1.46679">
        <ele>174.62</ele>
        <time>2023-09-12T14:58:16Z</time>
      </trkpt>
      <trkpt lat="44.26544" lon="1.46666">
        <ele>174.14</ele>
        <time>2023-09-12T14:58:30Z</time>
      </trkpt>
      <trkpt lat="44.26547" lon="1.46662">
        <ele>173.17</ele>
        <time>2023-09-12T14:58:34Z</time>
      </trkpt>
      <trkpt lat="44.26561" lon="1.46641">
        <ele>172.21</ele>
        <time>2023-09-12T14:58:53Z</time>
      </trkpt>
      <trkpt lat="44.26566" lon="1.46634">
        <ele>172.21</ele>
        <time>2023-09-12T14:58:59Z</time>
      </trkpt>
      <trkpt lat="44.26571" lon="1.46629">
        <ele>172.21</ele>
        <time>2023-09-12T14:59:03Z</time>
      </trkpt>
      <trkpt lat="44.26575" lon="1.46625">
        <ele>172.21</ele>
        <time>2023-09-12T14:59:10Z</time>
      </trkpt>
      <trkpt lat="44.26584" lon="1.46614">
        <ele>171.73</ele>
        <time>2023-09-12T14:59:21Z</time>
      </trkpt>
      <trkpt lat="44.26587" lon="1.46609">
        <ele>171.73</ele>
        <time>2023-09-12T14:59:23Z</time>
      </trkpt>
      <trkpt lat="44.26598" lon="1.4659">
        <ele>171.73</ele>
        <time>2023-09-12T14:59:34Z</time>
      </trkpt>
      <trkpt lat="44.26604" lon="1.46576">
        <ele>171.73</ele>
        <time>2023-09-12T14:59:46Z</time>
      </trkpt>
      <trkpt lat="44.26612" lon="1.46553">
        <ele>171.73</ele>
        <time>2023-09-12T15:00:02Z</time>
      </trkpt>
      <trkpt lat="44.26622" lon="1.46526">
        <ele>171.73</ele>
        <time>2023-09-12T15:00:20Z</time>
      </trkpt>
      <trkpt lat="44.26624" lon="1.46495">
        <ele>171.25</ele>
        <time>2023-09-12T15:00:38Z</time>
      </trkpt>
      <trkpt lat="44.26622" lon="1.46489">
        <ele>171.25</ele>
        <time>2023-09-12T15:00:42Z</time>
      </trkpt>
      <trkpt lat="44.26609" lon="1.46459">
        <ele>172.69</ele>
        <time>2023-09-12T15:01:01Z</time>
      </trkpt>
      <trkpt lat="44.26597" lon="1.46434">
        <ele>173.66</ele>
        <time>2023-09-12T15:01:19Z</time>
      </trkpt>
      <trkpt lat="44.26586" lon="1.46414">
        <ele>172.21</ele>
        <time>2023-09-12T15:01:36Z</time>
      </trkpt>
      <trkpt lat="44.26577" lon="1.46401">
        <ele>169.81</ele>
        <time>2023-09-12T15:01:48Z</time>
      </trkpt>
      <trkpt lat="44.26569" lon="1.46387">
        <ele>170.77</ele>
        <time>2023-09-12T15:02:02Z</time>
      </trkpt>
      <trkpt lat="44.26566" lon="1.46385">
        <ele>171.25</ele>
        <time>2023-09-12T15:02:05Z</time>
      </trkpt>
      <trkpt lat="44.26564" lon="1.46384">
        <ele>171.25</ele>
        <time>2023-09-12T15:02:07Z</time>
      </trkpt>
      <trkpt lat="44.26556" lon="1.46378">
        <ele>171.73</ele>
        <time>2023-09-12T15:02:22Z</time>
      </trkpt>
      <trkpt lat="44.26548" lon="1.46369">
        <ele>174.14</ele>
        <time>2023-09-12T15:02:36Z</time>
      </trkpt>
      <trkpt lat="44.26544" lon="1.46367">
        <ele>176.06</ele>
        <time>2023-09-12T15:02:53Z</time>
      </trkpt>
      <trkpt lat="44.26535" lon="1.4636">
        <ele>177.98</ele>
        <time>2023-09-12T15:03:09Z</time>
      </trkpt>
      <trkpt lat="44.26527" lon="1.46358">
        <ele>181.35</ele>
        <time>2023-09-12T15:03:22Z</time>
      </trkpt>
      <trkpt lat="44.26518" lon="1.46353">
        <ele>183.27</ele>
        <time>2023-09-12T15:03:37Z</time>
      </trkpt>
      <trkpt lat="44.26509" lon="1.46343">
        <ele>185.19</ele>
        <time>2023-09-12T15:03:51Z</time>
      </trkpt>
      <trkpt lat="44.26503" lon="1.46342">
        <ele>185.67</ele>
        <time>2023-09-12T15:03:58Z</time>
      </trkpt>
      <trkpt lat="44.2649" lon="1.46347">
        <ele>186.63</ele>
        <time>2023-09-12T15:04:14Z</time>
      </trkpt>
      <trkpt lat="44.26489" lon="1.46347">
        <ele>186.63</ele>
        <time>2023-09-12T15:04:15Z</time>
      </trkpt>
      <trkpt lat="44.26482" lon="1.46341">
        <ele>187.11</ele>
        <time>2023-09-12T15:04:27Z</time>
      </trkpt>
      <trkpt lat="44.26484" lon="1.46325">
        <ele>186.15</ele>
        <time>2023-09-12T15:04:40Z</time>
      </trkpt>
      <trkpt lat="44.26487" lon="1.463">
        <ele>184.71</ele>
        <time>2023-09-12T15:04:58Z</time>
      </trkpt>
      <trkpt lat="44.26489" lon="1.46282">
        <ele>183.75</ele>
        <time>2023-09-12T15:05:11Z</time>
      </trkpt>
      <trkpt lat="44.2649" lon="1.46277">
        <ele>183.75</ele>
        <time>2023-09-12T15:05:14Z</time>
      </trkpt>
      <trkpt lat="44.26492" lon="1.46261">
        <ele>182.79</ele>
        <time>2023-09-12T15:05:24Z</time>
      </trkpt>
      <trkpt lat="44.26501" lon="1.46232">
        <ele>181.35</ele>
        <time>2023-09-12T15:05:42Z</time>
      </trkpt>
      <trkpt lat="44.26503" lon="1.46224">
        <ele>181.35</ele>
        <time>2023-09-12T15:05:47Z</time>
      </trkpt>
      <trkpt lat="44.26515" lon="1.46197">
        <ele>180.38</ele>
        <time>2023-09-12T15:06:04Z</time>
      </trkpt>
      <trkpt lat="44.26525" lon="1.46181">
        <ele>179.9</ele>
        <time>2023-09-12T15:06:15Z</time>
      </trkpt>
      <trkpt lat="44.26527" lon="1.46179">
        <ele>179.9</ele>
        <time>2023-09-12T15:06:17Z</time>
      </trkpt>
      <trkpt lat="44.26543" lon="1.46157">
        <ele>178.46</ele>
        <time>2023-09-12T15:06:34Z</time>
      </trkpt>
      <trkpt lat="44.2655" lon="1.46137">
        <ele>177.98</ele>
        <time>2023-09-12T15:06:47Z</time>
      </trkpt>
      <trkpt lat="44.26551" lon="1.46132">
        <ele>177.98</ele>
        <time>2023-09-12T15:06:50Z</time>
      </trkpt>
      <trkpt lat="44.26552" lon="1.46126">
        <ele>177.5</ele>
        <time>2023-09-12T15:06:54Z</time>
      </trkpt>
      <trkpt lat="44.26556" lon="1.46097">
        <ele>176.54</ele>
        <time>2023-09-12T15:07:11Z</time>
      </trkpt>
      <trkpt lat="44.26557" lon="1.46066">
        <ele>176.06</ele>
        <time>2023-09-12T15:07:27Z</time>
      </trkpt>
      <trkpt lat="44.26553" lon="1.46041">
        <ele>175.58</ele>
        <time>2023-09-12T15:07:43Z</time>
      </trkpt>
      <trkpt lat="44.26552" lon="1.46028">
        <ele>175.1</ele>
        <time>2023-09-12T15:07:52Z</time>
      </trkpt>
      <trkpt lat="44.26555" lon="1.46018">
        <ele>174.62</ele>
        <time>2023-09-12T15:07:59Z</time>
      </trkpt>
      <trkpt lat="44.26564" lon="1.45996">
        <ele>174.14</ele>
        <time>2023-09-12T15:08:15Z</time>
      </trkpt>
      <trkpt lat="44.26574" lon="1.45972">
        <ele>174.14</ele>
        <time>2023-09-12T15:08:32Z</time>
      </trkpt>
      <trkpt lat="44.26585" lon="1.45943">
        <ele>174.14</ele>
        <time>2023-09-12T15:08:51Z</time>
      </trkpt>
      <trkpt lat="44.26592" lon="1.45919">
        <ele>173.66</ele>
        <time>2023-09-12T15:09:06Z</time>
      </trkpt>
      <trkpt lat="44.26596" lon="1.45889">
        <ele>173.17</ele>
        <time>2023-09-12T15:09:24Z</time>
      </trkpt>
      <trkpt lat="44.26598" lon="1.45863">
        <ele>172.69</ele>
        <time>2023-09-12T15:09:39Z</time>
      </trkpt>
      <trkpt lat="44.26597" lon="1.45839">
        <ele>172.69</ele>
        <time>2023-09-12T15:09:53Z</time>
      </trkpt>
      <trkpt lat="44.26597" lon="1.45837">
        <ele>172.69</ele>
        <time>2023-09-12T15:09:54Z</time>
      </trkpt>
      <trkpt lat="44.26601" lon="1.4581">
        <ele>172.21</ele>
        <time>2023-09-12T15:10:09Z</time>
      </trkpt>
      <trkpt lat="44.26606" lon="1.45782">
        <ele>172.21</ele>
        <time>2023-09-12T15:10:24Z</time>
      </trkpt>
      <trkpt lat="44.26613" lon="1.45761">
        <ele>171.73</ele>
        <time>2023-09-12T15:10:38Z</time>
      </trkpt>
      <trkpt lat="44.26621" lon="1.45737">
        <ele>171.25</ele>
        <time>2023-09-12T15:10:52Z</time>
      </trkpt>
      <trkpt lat="44.26632" lon="1.45714">
        <ele>170.77</ele>
        <time>2023-09-12T15:11:07Z</time>
      </trkpt>
      <trkpt lat="44.2664" lon="1.45692">
        <ele>170.77</ele>
        <time>2023-09-12T15:11:21Z</time>
      </trkpt>
      <trkpt lat="44.26646" lon="1.4568">
        <ele>170.29</ele>
        <time>2023-09-12T15:11:30Z</time>
      </trkpt>
      <trkpt lat="44.26646" lon="1.45653">
        <ele>169.33</ele>
        <time>2023-09-12T15:11:45Z</time>
      </trkpt>
      <trkpt lat="44.26641" lon="1.45624">
        <ele>169.33</ele>
        <time>2023-09-12T15:12:01Z</time>
      </trkpt>
      <trkpt lat="44.26633" lon="1.45607">
        <ele>168.85</ele>
        <time>2023-09-12T15:12:14Z</time>
      </trkpt>
      <trkpt lat="44.26612" lon="1.45592">
        <ele>168.85</ele>
        <time>2023-09-12T15:12:32Z</time>
      </trkpt>
      <trkpt lat="44.2661" lon="1.45589">
        <ele>168.85</ele>
        <time>2023-09-12T15:12:36Z</time>
      </trkpt>
      <trkpt lat="44.26603" lon="1.45587">
        <ele>168.85</ele>
        <time>2023-09-12T15:12:42Z</time>
      </trkpt>
      <trkpt lat="44.2658" lon="1.45591">
        <ele>170.29</ele>
        <time>2023-09-12T15:13:01Z</time>
      </trkpt>
      <trkpt lat="44.26558" lon="1.45595">
        <ele>170.77</ele>
        <time>2023-09-12T15:13:20Z</time>
      </trkpt>
      <trkpt lat="44.26536" lon="1.45599">
        <ele>171.25</ele>
        <time>2023-09-12T15:13:37Z</time>
      </trkpt>
      <trkpt lat="44.26516" lon="1.45602">
        <ele>171.73</ele>
        <time>2023-09-12T15:13:54Z</time>
      </trkpt>
      <trkpt lat="44.26495" lon="1.45607">
        <ele>172.69</ele>
        <time>2023-09-12T15:14:12Z</time>
      </trkpt>
      <trkpt lat="44.26474" lon="1.45611">
        <ele>173.17</ele>
        <time>2023-09-12T15:14:29Z</time>
      </trkpt>
      <trkpt lat="44.26469" lon="1.45613">
        <ele>173.17</ele>
        <time>2023-09-12T15:14:34Z</time>
      </trkpt>
      <trkpt lat="44.26448" lon="1.45616">
        <ele>173.17</ele>
        <time>2023-09-12T15:14:52Z</time>
      </trkpt>
      <trkpt lat="44.26425" lon="1.4562">
        <ele>172.69</ele>
        <time>2023-09-12T15:15:09Z</time>
      </trkpt>
      <trkpt lat="44.26399" lon="1.45625">
        <ele>173.66</ele>
        <time>2023-09-12T15:15:27Z</time>
      </trkpt>
      <trkpt lat="44.26376" lon="1.45629">
        <ele>175.1</ele>
        <time>2023-09-12T15:15:45Z</time>
      </trkpt>
      <trkpt lat="44.26353" lon="1.45633">
        <ele>175.58</ele>
        <time>2023-09-12T15:16:04Z</time>
      </trkpt>
      <trkpt lat="44.2633" lon="1.45641">
        <ele>176.54</ele>
        <time>2023-09-12T15:16:22Z</time>
      </trkpt>
      <trkpt lat="44.26313" lon="1.4564">
        <ele>177.02</ele>
        <time>2023-09-12T15:16:38Z</time>
      </trkpt>
      <trkpt lat="44.26293" lon="1.45646">
        <ele>177.02</ele>
        <time>2023-09-12T15:16:57Z</time>
      </trkpt>
      <trkpt lat="44.26275" lon="1.45654">
        <ele>177.5</ele>
        <time>2023-09-12T15:17:13Z</time>
      </trkpt>
      <trkpt lat="44.26255" lon="1.45661">
        <ele>178.46</ele>
        <time>2023-09-12T15:17:30Z</time>
      </trkpt>
      <trkpt lat="44.26233" lon="1.45668">
        <ele>178.46</ele>
        <time>2023-09-12T15:17:47Z</time>
      </trkpt>
      <trkpt lat="44.26211" lon="1.45667">
        <ele>179.42</ele>
        <time>2023-09-12T15:18:06Z</time>
      </trkpt>
      <trkpt lat="44.26187" lon="1.45655">
        <ele>179.42</ele>
        <time>2023-09-12T15:18:26Z</time>
      </trkpt>
      <trkpt lat="44.26167" lon="1.45645">
        <ele>179.42</ele>
        <time>2023-09-12T15:18:44Z</time>
      </trkpt>
      <trkpt lat="44.26149" lon="1.45637">
        <ele>179.42</ele>
        <time>2023-09-12T15:19:01Z</time>
      </trkpt>
      <trkpt lat="44.26133" lon="1.45623">
        <ele>179.42</ele>
        <time>2023-09-12T15:19:17Z</time>
      </trkpt>
      <trkpt lat="44.26126" lon="1.45603">
        <ele>179.42</ele>
        <time>2023-09-12T15:19:34Z</time>
      </trkpt>
      <trkpt lat="44.26125" lon="1.4559">
        <ele>177.98</ele>
        <time>2023-09-12T15:19:42Z</time>
      </trkpt>
      <trkpt lat="44.26127" lon="1.45572">
        <ele>177.5</ele>
        <time>2023-09-12T15:19:53Z</time>
      </trkpt>
      <trkpt lat="44.26129" lon="1.45553">
        <ele>176.06</ele>
        <time>2023-09-12T15:20:07Z</time>
      </trkpt>
      <trkpt lat="44.26133" lon="1.4554">
        <ele>175.58</ele>
        <time>2023-09-12T15:20:21Z</time>
      </trkpt>
      <trkpt lat="44.26142" lon="1.45551">
        <ele>175.58</ele>
        <time>2023-09-12T15:20:35Z</time>
      </trkpt>
      <trkpt lat="44.26144" lon="1.45553">
        <ele>175.58</ele>
        <time>2023-09-12T15:20:38Z</time>
      </trkpt>
      <trkpt lat="44.26163" lon="1.45557">
        <ele>175.58</ele>
        <time>2023-09-12T15:20:55Z</time>
      </trkpt>
      <trkpt lat="44.26167" lon="1.45553">
        <ele>175.58</ele>
        <time>2023-09-12T15:21:00Z</time>
      </trkpt>
      <trkpt lat="44.2617" lon="1.45549">
        <ele>174.62</ele>
        <time>2023-09-12T15:21:05Z</time>
      </trkpt>
      <trkpt lat="44.26168" lon="1.45544">
        <ele>176.06</ele>
        <time>2023-09-12T15:21:16Z</time>
      </trkpt>
      <trkpt lat="44.26169" lon="1.45544">
        <ele>175.58</ele>
        <time>2023-09-12T15:21:38Z</time>
      </trkpt>
    </trkseg>
  </trk>
</gpx>